<?xml version='1.0' encoding='UTF-8'?><gpx version="1.1" creator="JPX - https://github.com/jenetics/jpx" xmlns="http://www.topografix.com/GPX/1/1"><trk><trkseg><trkpt lat="44.1166602" lon="9.7953184"><ele>147.0</ele><time>2026-04-02T14:04:47.118Z</time></trkpt><trkpt lat="44.1165112" lon="9.7954508"><ele>147.0</ele><time>2026-04-02T14:04:58.836Z</time></trkpt><trkpt lat="44.1166895" lon="9.795666"><ele>147.0</ele><time>2026-04-02T14:05:12.612Z</time></trkpt><trkpt lat="44.1166224" lon="9.7956779"><ele>151.0</ele><time>2026-04-02T14:05:27.192Z</time></trkpt><trkpt lat="44.1162459" lon="9.7957114"><ele>155.0</ele><time>2026-04-02T14:05:36.839Z</time></trkpt><trkpt lat="44.114924" lon="9.7962891"><ele>145.0</ele><time>2026-04-02T14:06:00.877Z</time></trkpt><trkpt lat="44.1145417" lon="9.7964711"><ele>135.0</ele><time>2026-04-02T14:06:24.214Z</time></trkpt><trkpt lat="44.1136066" lon="9.7968148"><ele>117.5</ele><time>2026-04-02T14:06:36.87Z</time></trkpt><trkpt lat="44.1134477" lon="9.7969341"><ele>100.0</ele><time>2026-04-02T14:06:48.822Z</time></trkpt><trkpt lat="44.1138367" lon="9.7972652"><ele>100.0</ele><time>2026-04-02T14:07:24.835Z</time></trkpt><trkpt lat="44.1138128" lon="9.7973629"><ele>100.0</ele><time>2026-04-02T14:07:48.84Z</time></trkpt><trkpt lat="44.1118816" lon="9.8013453"><ele>100.0</ele><time>2026-04-02T14:08:00.593Z</time></trkpt><trkpt lat="44.1138542" lon="9.7973225"><ele>100.0</ele><time>2026-04-02T14:08:12.846Z</time></trkpt><trkpt lat="44.1136394" lon="9.7971038"><ele>100.0</ele><time>2026-04-02T14:09:15.419Z</time></trkpt><trkpt lat="44.1139488" lon="9.7970137"><ele>100.0</ele><time>2026-04-02T14:09:49.932Z</time></trkpt><trkpt lat="44.11406" lon="9.796941"><ele>100.0</ele><time>2026-04-02T14:10:01.836Z</time></trkpt><trkpt lat="44.1146345" lon="9.796544"><ele>107.0</ele><time>2026-04-02T14:10:13.838Z</time></trkpt><trkpt lat="44.1149624" lon="9.7965616"><ele>114.0</ele><time>2026-04-02T14:10:37.325Z</time></trkpt><trkpt lat="44.1157462" lon="9.796222"><ele>114.0</ele><time>2026-04-02T14:10:50.829Z</time></trkpt><trkpt lat="44.1161895" lon="9.7960215"><ele>125.0</ele><time>2026-04-02T14:11:02.829Z</time></trkpt><trkpt lat="44.1164617" lon="9.7959425"><ele>136.0</ele><time>2026-04-02T14:11:17.052Z</time></trkpt><trkpt lat="44.1164575" lon="9.7957389"><ele>147.0</ele><time>2026-04-02T14:11:51.817Z</time></trkpt><trkpt lat="44.11659" lon="9.7955608"><ele>149.66666666666666</ele><time>2026-04-02T14:12:03.815Z</time></trkpt><trkpt lat="44.116393" lon="9.795409"><ele>152.33333333333331</ele><time>2026-04-02T14:12:28.886Z</time></trkpt><trkpt lat="44.1163135" lon="9.7953854"><ele>155.0</ele><time>2026-04-02T14:12:40.87Z</time></trkpt><trkpt lat="44.1161832" lon="9.7958338"><ele>132.0</ele><time>2026-04-02T14:13:11.593Z</time></trkpt><trkpt lat="44.1153789" lon="9.7963617"><ele>132.0</ele><time>2026-04-02T14:13:12.583Z</time></trkpt><trkpt lat="44.1153162" lon="9.796475"><ele>132.0</ele><time>2026-04-02T14:13:13.599Z</time></trkpt><trkpt lat="44.1152361" lon="9.7966492"><ele>132.0</ele><time>2026-04-02T14:13:14.596Z</time></trkpt><trkpt lat="44.1149394" lon="9.7967844"><ele>123.66666666666666</ele><time>2026-04-02T14:13:17.61Z</time></trkpt><trkpt lat="44.1148296" lon="9.7969151"><ele>115.33333333333333</ele><time>2026-04-02T14:13:18.594Z</time></trkpt><trkpt lat="44.1147004" lon="9.7970625"><ele>107.0</ele><time>2026-04-02T14:13:19.592Z</time></trkpt><trkpt lat="44.1145824" lon="9.7972109"><ele>107.0</ele><time>2026-04-02T14:13:20.594Z</time></trkpt><trkpt lat="44.1144584" lon="9.7973635"><ele>107.0</ele><time>2026-04-02T14:13:21.594Z</time></trkpt><trkpt lat="44.1143267" lon="9.7975596"><ele>107.0</ele><time>2026-04-02T14:13:22.592Z</time></trkpt><trkpt lat="44.1142057" lon="9.7977355"><ele>97.33333333333333</ele><time>2026-04-02T14:13:23.59Z</time></trkpt><trkpt lat="44.1140931" lon="9.797874"><ele>87.66666666666666</ele><time>2026-04-02T14:13:24.597Z</time></trkpt><trkpt lat="44.1140196" lon="9.7979988"><ele>78.0</ele><time>2026-04-02T14:13:25.596Z</time></trkpt><trkpt lat="44.1162753" lon="9.795352"><ele>101.0</ele><time>2026-04-02T14:13:34.866Z</time></trkpt><trkpt lat="44.1165639" lon="9.7953308"><ele>124.0</ele><time>2026-04-02T14:14:10.839Z</time></trkpt><trkpt lat="44.116711" lon="9.795368"><ele>147.0</ele><time>2026-04-02T14:14:24.75Z</time></trkpt><trkpt lat="44.1165323" lon="9.7956809"><ele>147.0</ele><time>2026-04-02T14:14:34.814Z</time></trkpt><trkpt lat="44.1166495" lon="9.7955753"><ele>147.0</ele><time>2026-04-02T14:14:46.815Z</time></trkpt><trkpt lat="44.1161841" lon="9.7956769"><ele>151.0</ele><time>2026-04-02T14:15:00.602Z</time></trkpt><trkpt lat="44.1160877" lon="9.7955955"><ele>155.0</ele><time>2026-04-02T14:15:20.559Z</time></trkpt><trkpt lat="44.1148312" lon="9.7965782"><ele>135.0</ele><time>2026-04-02T14:15:26.597Z</time></trkpt><trkpt lat="44.1144096" lon="9.7963026"><ele>117.0</ele><time>2026-04-02T14:15:38.339Z</time></trkpt><trkpt lat="44.1140497" lon="9.7967449"><ele>100.0</ele><time>2026-04-02T14:15:47.826Z</time></trkpt><trkpt lat="44.1137921" lon="9.7972729"><ele>100.0</ele><time>2026-04-02T14:16:13.472Z</time></trkpt><trkpt lat="44.1137049" lon="9.7973886"><ele>100.0</ele><time>2026-04-02T14:16:35.82Z</time></trkpt><trkpt lat="44.1136737" lon="9.7977414"><ele>100.0</ele><time>2026-04-02T14:16:59.909Z</time></trkpt><trkpt lat="44.1135909" lon="9.7977655"><ele>86.5</ele><time>2026-04-02T14:17:36.874Z</time></trkpt><trkpt lat="44.1138393" lon="9.7976964"><ele>73.0</ele><time>2026-04-02T14:17:51.879Z</time></trkpt><trkpt lat="44.1135639" lon="9.798608"><ele>61.5</ele><time>2026-04-02T14:18:25.827Z</time></trkpt><trkpt lat="44.1137674" lon="9.7987652"><ele>50.0</ele><time>2026-04-02T14:18:37.816Z</time></trkpt><trkpt lat="44.1129192" lon="9.7987672"><ele>50.0</ele><time>2026-04-02T14:18:52.51Z</time></trkpt><trkpt lat="44.1133159" lon="9.7989418"><ele>50.0</ele><time>2026-04-02T14:19:01.811Z</time></trkpt><trkpt lat="44.1122357" lon="9.7988614"><ele>46.0</ele><time>2026-04-02T14:19:27.81Z</time></trkpt><trkpt lat="44.1120189" lon="9.7986979"><ele>42.0</ele><time>2026-04-02T14:19:39.824Z</time></trkpt><trkpt lat="44.1122446" lon="9.7997619"><ele>20.0</ele><time>2026-04-02T14:19:54.255Z</time></trkpt><trkpt lat="44.1121403" lon="9.8005585"><ele>20.0</ele><time>2026-04-02T14:20:02.828Z</time></trkpt><trkpt lat="44.1118892" lon="9.8008032"><ele>20.0</ele><time>2026-04-02T14:20:13.844Z</time></trkpt><trkpt lat="44.1116812" lon="9.80201"><ele>19.0</ele><time>2026-04-02T14:20:36.822Z</time></trkpt><trkpt lat="44.1113073" lon="9.8018544"><ele>18.0</ele><time>2026-04-02T14:20:48.845Z</time></trkpt><trkpt lat="44.1109499" lon="9.8020701"><ele>14.0</ele><time>2026-04-02T14:21:00.312Z</time></trkpt><trkpt lat="44.1105108" lon="9.8027391"><ele>14.0</ele><time>2026-04-02T14:21:12.818Z</time></trkpt><trkpt lat="44.110124" lon="9.8032289"><ele>15.0</ele><time>2026-04-02T14:21:24.819Z</time></trkpt><trkpt lat="44.109805" lon="9.8039446"><ele>15.0</ele><time>2026-04-02T14:21:36.819Z</time></trkpt><trkpt lat="44.1093574" lon="9.8045837"><ele>16.0</ele><time>2026-04-02T14:21:48.824Z</time></trkpt><trkpt lat="44.1089477" lon="9.8052666"><ele>16.0</ele><time>2026-04-02T14:22:00.823Z</time></trkpt><trkpt lat="44.108479" lon="9.8059143"><ele>12.0</ele><time>2026-04-02T14:22:12.818Z</time></trkpt><trkpt lat="44.1081256" lon="9.8064471"><ele>12.0</ele><time>2026-04-02T14:22:24.821Z</time></trkpt><trkpt lat="44.1079068" lon="9.8063096"><ele>12.0</ele><time>2026-04-02T14:22:36.249Z</time></trkpt><trkpt lat="44.1072282" lon="9.8053758"><ele>17.0</ele><time>2026-04-02T14:22:48.818Z</time></trkpt><trkpt lat="44.106677" lon="9.8049368"><ele>16.0</ele><time>2026-04-02T14:23:00.817Z</time></trkpt><trkpt lat="44.1061692" lon="9.804511"><ele>18.0</ele><time>2026-04-02T14:23:12.813Z</time></trkpt><trkpt lat="44.1057456" lon="9.8038627"><ele>20.0</ele><time>2026-04-02T14:23:24.824Z</time></trkpt><trkpt lat="44.1053282" lon="9.8034498"><ele>22.0</ele><time>2026-04-02T14:23:36.819Z</time></trkpt><trkpt lat="44.1048598" lon="9.8035026"><ele>22.0</ele><time>2026-04-02T14:23:48.864Z</time></trkpt><trkpt lat="44.1046237" lon="9.803882"><ele>22.0</ele><time>2026-04-02T14:24:00.257Z</time></trkpt><trkpt lat="44.1049161" lon="9.8042608"><ele>17.0</ele><time>2026-04-02T14:24:12.867Z</time></trkpt><trkpt lat="44.1051291" lon="9.8049093"><ele>15.0</ele><time>2026-04-02T14:24:24.428Z</time></trkpt><trkpt lat="44.1056089" lon="9.8055066"><ele>16.0</ele><time>2026-04-02T14:24:36.838Z</time></trkpt><trkpt lat="44.1061316" lon="9.8060789"><ele>13.0</ele><time>2026-04-02T14:24:48.112Z</time></trkpt><trkpt lat="44.1066942" lon="9.8066866"><ele>13.0</ele><time>2026-04-02T14:25:00.801Z</time></trkpt><trkpt lat="44.1072229" lon="9.8072599"><ele>11.0</ele><time>2026-04-02T14:25:12.805Z</time></trkpt><trkpt lat="44.1076501" lon="9.8079435"><ele>11.0</ele><time>2026-04-02T14:25:24.805Z</time></trkpt><trkpt lat="44.1081702" lon="9.8085511"><ele>11.0</ele><time>2026-04-02T14:25:36.093Z</time></trkpt><trkpt lat="44.1079171" lon="9.8092209"><ele>10.0</ele><time>2026-04-02T14:25:48.829Z</time></trkpt><trkpt lat="44.108438" lon="9.8094105"><ele>10.0</ele><time>2026-04-02T14:26:00.356Z</time></trkpt><trkpt lat="44.1080821" lon="9.8097517"><ele>10.0</ele><time>2026-04-02T14:26:12.83Z</time></trkpt><trkpt lat="44.1083542" lon="9.8094401"><ele>10.0</ele><time>2026-04-02T14:26:24.874Z</time></trkpt><trkpt lat="44.1085736" lon="9.809013"><ele>10.0</ele><time>2026-04-02T14:26:36.833Z</time></trkpt><trkpt lat="44.1090083" lon="9.8083728"><ele>11.0</ele><time>2026-04-02T14:26:48.826Z</time></trkpt><trkpt lat="44.1093382" lon="9.8079336"><ele>10.0</ele><time>2026-04-02T14:27:00.824Z</time></trkpt><trkpt lat="44.109027" lon="9.8077164"><ele>9.0</ele><time>2026-04-02T14:27:12.831Z</time></trkpt><trkpt lat="44.1089913" lon="9.8080231"><ele>9.333333333333334</ele><time>2026-04-02T14:27:24.526Z</time></trkpt><trkpt lat="44.1090852" lon="9.8077346"><ele>9.666666666666668</ele><time>2026-04-02T14:27:25.817Z</time></trkpt><trkpt lat="44.1091876" lon="9.8075826"><ele>10.0</ele><time>2026-04-02T14:27:36.011Z</time></trkpt><trkpt lat="44.1088386" lon="9.8074021"><ele>13.0</ele><time>2026-04-02T14:27:38.842Z</time></trkpt><trkpt lat="44.1084439" lon="9.8067652"><ele>13.0</ele><time>2026-04-02T14:27:51.928Z</time></trkpt><trkpt lat="44.1085089" lon="9.8063227"><ele>13.0</ele><time>2026-04-02T14:28:03.384Z</time></trkpt><trkpt lat="44.1084601" lon="9.8070105"><ele>9.0</ele><time>2026-04-02T14:28:17.876Z</time></trkpt><trkpt lat="44.108986" lon="9.8076855"><ele>9.0</ele><time>2026-04-02T14:28:30.84Z</time></trkpt><trkpt lat="44.1088153" lon="9.8079936"><ele>9.0</ele><time>2026-04-02T14:28:42.832Z</time></trkpt><trkpt lat="44.1083879" lon="9.8090864"><ele>9.0</ele><time>2026-04-02T14:28:54.875Z</time></trkpt><trkpt lat="44.1079199" lon="9.809991"><ele>8.0</ele><time>2026-04-02T14:29:07.828Z</time></trkpt><trkpt lat="44.1075341" lon="9.8107241"><ele>7.0</ele><time>2026-04-02T14:29:19.842Z</time></trkpt><trkpt lat="44.1070539" lon="9.8116292"><ele>8.0</ele><time>2026-04-02T14:29:31.87Z</time></trkpt><trkpt lat="44.1066251" lon="9.812153"><ele>5.0</ele><time>2026-04-02T14:29:43.829Z</time></trkpt><trkpt lat="44.1061898" lon="9.8128517"><ele>6.0</ele><time>2026-04-02T14:29:56.832Z</time></trkpt><trkpt lat="44.1065053" lon="9.8123985"><ele>5.5</ele><time>2026-04-02T14:30:21.878Z</time></trkpt><trkpt lat="44.1062824" lon="9.8127297"><ele>5.0</ele><time>2026-04-02T14:30:34.824Z</time></trkpt><trkpt lat="44.1058938" lon="9.8131163"><ele>6.0</ele><time>2026-04-02T14:30:46.863Z</time></trkpt><trkpt lat="44.105802" lon="9.813868"><ele>2.0</ele><time>2026-04-02T14:30:58.296Z</time></trkpt><trkpt lat="44.1044863" lon="9.8123166"><ele>1.0</ele><time>2026-04-02T14:31:11.824Z</time></trkpt><trkpt lat="44.1040646" lon="9.811783"><ele>1.0</ele><time>2026-04-02T14:31:24.838Z</time></trkpt><trkpt lat="44.1035503" lon="9.8111635"><ele>1.0</ele><time>2026-04-02T14:31:37.83Z</time></trkpt><trkpt lat="44.1029865" lon="9.8105088"><ele>2.0</ele><time>2026-04-02T14:31:50.922Z</time></trkpt><trkpt lat="44.1024568" lon="9.8099085"><ele>1.0</ele><time>2026-04-02T14:32:03.825Z</time></trkpt><trkpt lat="44.1020291" lon="9.809393"><ele>1.0</ele><time>2026-04-02T14:32:15.779Z</time></trkpt><trkpt lat="44.1019047" lon="9.8093698"><ele>1.0</ele><time>2026-04-02T14:32:16.854Z</time></trkpt><trkpt lat="44.1013507" lon="9.8087587"><ele>1.5</ele><time>2026-04-02T14:32:29.867Z</time></trkpt><trkpt lat="44.101346" lon="9.808397"><ele>2.0</ele><time>2026-04-02T14:32:41.635Z</time></trkpt><trkpt lat="44.100868" lon="9.8081464"><ele>11.0</ele><time>2026-04-02T14:32:42.836Z</time></trkpt><trkpt lat="44.1002156" lon="9.8079496"><ele>3.0</ele><time>2026-04-02T14:32:55.819Z</time></trkpt><trkpt lat="44.0999707" lon="9.8085126"><ele>3.0</ele><time>2026-04-02T14:33:08.069Z</time></trkpt><trkpt lat="44.0993871" lon="9.8093855"><ele>8.0</ele><time>2026-04-02T14:33:22.595Z</time></trkpt><trkpt lat="44.0990071" lon="9.8098737"><ele>6.0</ele><time>2026-04-02T14:33:34.829Z</time></trkpt><trkpt lat="44.0987006" lon="9.8105373"><ele>4.0</ele><time>2026-04-02T14:33:47.84Z</time></trkpt><trkpt lat="44.0982801" lon="9.8112657"><ele>25.0</ele><time>2026-04-02T14:34:00.837Z</time></trkpt><trkpt lat="44.0973956" lon="9.8124727"><ele>19.0</ele><time>2026-04-02T14:34:24.824Z</time></trkpt><trkpt lat="44.0969135" lon="9.8130442"><ele>22.0</ele><time>2026-04-02T14:34:36.876Z</time></trkpt><trkpt lat="44.096405" lon="9.8136837"><ele>22.0</ele><time>2026-04-02T14:34:48.832Z</time></trkpt><trkpt lat="44.09584" lon="9.813952"><ele>31.0</ele><time>2026-04-02T14:35:00.822Z</time></trkpt><trkpt lat="44.0951814" lon="9.8139645"><ele>46.0</ele><time>2026-04-02T14:35:13.823Z</time></trkpt><trkpt lat="44.0946785" lon="9.8146225"><ele>35.0</ele><time>2026-04-02T14:35:26.838Z</time></trkpt><trkpt lat="44.0942689" lon="9.8154136"><ele>32.0</ele><time>2026-04-02T14:35:39.83Z</time></trkpt><trkpt lat="44.0938776" lon="9.8161012"><ele>11.0</ele><time>2026-04-02T14:35:51.828Z</time></trkpt><trkpt lat="44.0932427" lon="9.8165477"><ele>11.0</ele><time>2026-04-02T14:36:05.608Z</time></trkpt><trkpt lat="44.0926951" lon="9.8161536"><ele>18.0</ele><time>2026-04-02T14:36:17.825Z</time></trkpt><trkpt lat="44.0924066" lon="9.815343"><ele>43.0</ele><time>2026-04-02T14:36:29.92Z</time></trkpt><trkpt lat="44.09199" lon="9.8147419"><ele>39.0</ele><time>2026-04-02T14:36:43.107Z</time></trkpt><trkpt lat="44.0915163" lon="9.8139891"><ele>59.0</ele><time>2026-04-02T14:36:55.941Z</time></trkpt><trkpt lat="44.0910785" lon="9.8132731"><ele>86.0</ele><time>2026-04-02T14:37:08.823Z</time></trkpt><trkpt lat="44.0906719" lon="9.8125936"><ele>86.0</ele><time>2026-04-02T14:37:20.84Z</time></trkpt><trkpt lat="44.0900375" lon="9.8125778"><ele>61.0</ele><time>2026-04-02T14:37:33.82Z</time></trkpt><trkpt lat="44.0894708" lon="9.8128263"><ele>51.0</ele><time>2026-04-02T14:37:45.849Z</time></trkpt><trkpt lat="44.0887833" lon="9.8127598"><ele>108.0</ele><time>2026-04-02T14:37:58.619Z</time></trkpt><trkpt lat="44.0881313" lon="9.812572"><ele>69.0</ele><time>2026-04-02T14:38:11.614Z</time></trkpt><trkpt lat="44.0875638" lon="9.812677"><ele>60.0</ele><time>2026-04-02T14:38:21.826Z</time></trkpt><trkpt lat="44.0870293" lon="9.8128221"><ele>74.0</ele><time>2026-04-02T14:38:32.805Z</time></trkpt><trkpt lat="44.0865759" lon="9.8123935"><ele>74.0</ele><time>2026-04-02T14:38:41.837Z</time></trkpt><trkpt lat="44.0860642" lon="9.8121243"><ele>81.5</ele><time>2026-04-02T14:38:51.864Z</time></trkpt><trkpt lat="44.0857064" lon="9.8117658"><ele>89.0</ele><time>2026-04-02T14:39:02.826Z</time></trkpt><trkpt lat="44.0861944" lon="9.8113985"><ele>93.0</ele><time>2026-04-02T14:39:15.625Z</time></trkpt><trkpt lat="44.0866009" lon="9.8120947"><ele>100.5</ele><time>2026-04-02T14:39:25.831Z</time></trkpt><trkpt lat="44.0865703" lon="9.812173"><ele>108.0</ele><time>2026-04-02T14:39:36.831Z</time></trkpt><trkpt lat="44.0877223" lon="9.8123309"><ele>99.0</ele><time>2026-04-02T14:39:47.823Z</time></trkpt><trkpt lat="44.0883574" lon="9.8123823"><ele>99.0</ele><time>2026-04-02T14:39:58.93Z</time></trkpt><trkpt lat="44.0889308" lon="9.8122324"><ele>130.0</ele><time>2026-04-02T14:40:10.826Z</time></trkpt><trkpt lat="44.0894889" lon="9.8117598"><ele>122.0</ele><time>2026-04-02T14:40:22.82Z</time></trkpt><trkpt lat="44.0900559" lon="9.8113122"><ele>122.0</ele><time>2026-04-02T14:40:34.817Z</time></trkpt><trkpt lat="44.0907179" lon="9.8112206"><ele>141.0</ele><time>2026-04-02T14:40:46.822Z</time></trkpt><trkpt lat="44.0912006" lon="9.8107518"><ele>153.0</ele><time>2026-04-02T14:40:58.927Z</time></trkpt><trkpt lat="44.0914907" lon="9.8100391"><ele>152.0</ele><time>2026-04-02T14:41:10.822Z</time></trkpt><trkpt lat="44.09123" lon="9.8091109"><ele>152.0</ele><time>2026-04-02T14:41:22.922Z</time></trkpt><trkpt lat="44.0908294" lon="9.8084984"><ele>173.0</ele><time>2026-04-02T14:41:34.822Z</time></trkpt><trkpt lat="44.0903628" lon="9.807838"><ele>164.0</ele><time>2026-04-02T14:41:46.957Z</time></trkpt><trkpt lat="44.0900032" lon="9.8071352"><ele>189.0</ele><time>2026-04-02T14:41:58.922Z</time></trkpt><trkpt lat="44.0898351" lon="9.8062204"><ele>158.0</ele><time>2026-04-02T14:42:10.824Z</time></trkpt><trkpt lat="44.089962" lon="9.8053782"><ele>196.0</ele><time>2026-04-02T14:42:22.81Z</time></trkpt><trkpt lat="44.0899118" lon="9.8044861"><ele>190.0</ele><time>2026-04-02T14:42:34.8Z</time></trkpt><trkpt lat="44.0895129" lon="9.8038402"><ele>182.0</ele><time>2026-04-02T14:42:46.806Z</time></trkpt><trkpt lat="44.0891674" lon="9.8029929"><ele>177.0</ele><time>2026-04-02T14:42:58.8Z</time></trkpt><trkpt lat="44.0892829" lon="9.8022036"><ele>177.0</ele><time>2026-04-02T14:43:10.812Z</time></trkpt><trkpt lat="44.0899224" lon="9.8019583"><ele>172.0</ele><time>2026-04-02T14:43:22.802Z</time></trkpt><trkpt lat="44.0904818" lon="9.8023526"><ele>169.0</ele><time>2026-04-02T14:43:34.795Z</time></trkpt><trkpt lat="44.0908897" lon="9.8029171"><ele>169.0</ele><time>2026-04-02T14:43:45.813Z</time></trkpt><trkpt lat="44.0914681" lon="9.8034467"><ele>165.0</ele><time>2026-04-02T14:43:58.011Z</time></trkpt><trkpt lat="44.0920316" lon="9.8035587"><ele>174.0</ele><time>2026-04-02T14:44:09.907Z</time></trkpt><trkpt lat="44.092679" lon="9.8036695"><ele>184.0</ele><time>2026-04-02T14:44:21.803Z</time></trkpt><trkpt lat="44.0932754" lon="9.8036638"><ele>184.0</ele><time>2026-04-02T14:44:32.814Z</time></trkpt><trkpt lat="44.0938983" lon="9.8037481"><ele>191.0</ele><time>2026-04-02T14:44:44.949Z</time></trkpt><trkpt lat="44.0945147" lon="9.8038055"><ele>191.0</ele><time>2026-04-02T14:44:56.803Z</time></trkpt><trkpt lat="44.0951944" lon="9.8036922"><ele>199.0</ele><time>2026-04-02T14:45:08.804Z</time></trkpt><trkpt lat="44.095768" lon="9.8031586"><ele>214.0</ele><time>2026-04-02T14:45:20.859Z</time></trkpt><trkpt lat="44.0959144" lon="9.8022376"><ele>213.0</ele><time>2026-04-02T14:45:32.901Z</time></trkpt><trkpt lat="44.0958157" lon="9.8012936"><ele>211.0</ele><time>2026-04-02T14:45:44.907Z</time></trkpt><trkpt lat="44.0957848" lon="9.800325"><ele>214.0</ele><time>2026-04-02T14:45:56.803Z</time></trkpt><trkpt lat="44.0959069" lon="9.7994748"><ele>226.0</ele><time>2026-04-02T14:46:07.946Z</time></trkpt><trkpt lat="44.0963621" lon="9.799017"><ele>217.0</ele><time>2026-04-02T14:46:18.799Z</time></trkpt><trkpt lat="44.0969848" lon="9.7989671"><ele>209.0</ele><time>2026-04-02T14:46:29.798Z</time></trkpt><trkpt lat="44.0976453" lon="9.7987979"><ele>241.0</ele><time>2026-04-02T14:46:40.803Z</time></trkpt><trkpt lat="44.0982257" lon="9.7982085"><ele>260.0</ele><time>2026-04-02T14:46:51.876Z</time></trkpt><trkpt lat="44.0981612" lon="9.7973657"><ele>262.0</ele><time>2026-04-02T14:47:02.911Z</time></trkpt><trkpt lat="44.0979583" lon="9.7965712"><ele>254.0</ele><time>2026-04-02T14:47:13.828Z</time></trkpt><trkpt lat="44.0977043" lon="9.7957598"><ele>246.0</ele><time>2026-04-02T14:47:24.805Z</time></trkpt><trkpt lat="44.097555" lon="9.7947928"><ele>298.0</ele><time>2026-04-02T14:47:36.814Z</time></trkpt><trkpt lat="44.0973955" lon="9.7940308"><ele>296.0</ele><time>2026-04-02T14:47:47.803Z</time></trkpt><trkpt lat="44.0972727" lon="9.7931619"><ele>294.0</ele><time>2026-04-02T14:47:58.808Z</time></trkpt><trkpt lat="44.0972311" lon="9.7922675"><ele>299.0</ele><time>2026-04-02T14:48:09.798Z</time></trkpt><trkpt lat="44.0973329" lon="9.7914763"><ele>309.0</ele><time>2026-04-02T14:48:20.8Z</time></trkpt><trkpt lat="44.0973337" lon="9.79061"><ele>313.0</ele><time>2026-04-02T14:48:31.804Z</time></trkpt><trkpt lat="44.0973241" lon="9.7897562"><ele>304.0</ele><time>2026-04-02T14:48:42.806Z</time></trkpt><trkpt lat="44.0972217" lon="9.788881"><ele>281.0</ele><time>2026-04-02T14:48:53.843Z</time></trkpt><trkpt lat="44.0968297" lon="9.7881576"><ele>287.0</ele><time>2026-04-02T14:49:04.795Z</time></trkpt><trkpt lat="44.0963251" lon="9.7876762"><ele>287.0</ele><time>2026-04-02T14:49:15.84Z</time></trkpt><trkpt lat="44.0957999" lon="9.7872526"><ele>313.0</ele><time>2026-04-02T14:49:26.898Z</time></trkpt><trkpt lat="44.0950517" lon="9.7870621"><ele>294.0</ele><time>2026-04-02T14:49:37.804Z</time></trkpt><trkpt lat="44.094548" lon="9.7867971"><ele>328.0</ele><time>2026-04-02T14:49:48.802Z</time></trkpt><trkpt lat="44.0940149" lon="9.7863241"><ele>299.0</ele><time>2026-04-02T14:49:59.834Z</time></trkpt><trkpt lat="44.093528" lon="9.7856923"><ele>328.0</ele><time>2026-04-02T14:50:10.809Z</time></trkpt><trkpt lat="44.0928409" lon="9.7854358"><ele>321.0</ele><time>2026-04-02T14:50:21.909Z</time></trkpt><trkpt lat="44.0922096" lon="9.7852656"><ele>313.0</ele><time>2026-04-02T14:50:33.138Z</time></trkpt><trkpt lat="44.0914963" lon="9.785223"><ele>308.0</ele><time>2026-04-02T14:50:43.833Z</time></trkpt><trkpt lat="44.0910924" lon="9.7849733"><ele>303.0</ele><time>2026-04-02T14:50:53.816Z</time></trkpt><trkpt lat="44.0908258" lon="9.7842727"><ele>303.0</ele><time>2026-04-02T14:51:03.819Z</time></trkpt><trkpt lat="44.0909365" lon="9.783571"><ele>306.0</ele><time>2026-04-02T14:51:13.856Z</time></trkpt><trkpt lat="44.0913276" lon="9.7831156"><ele>290.0</ele><time>2026-04-02T14:51:23.828Z</time></trkpt><trkpt lat="44.0918102" lon="9.782963"><ele>290.0</ele><time>2026-04-02T14:51:33.824Z</time></trkpt><trkpt lat="44.092391" lon="9.782719"><ele>303.0</ele><time>2026-04-02T14:51:43.834Z</time></trkpt><trkpt lat="44.0926813" lon="9.7819241"><ele>316.0</ele><time>2026-04-02T14:51:54.828Z</time></trkpt><trkpt lat="44.0926066" lon="9.7811457"><ele>316.0</ele><time>2026-04-02T14:52:04.824Z</time></trkpt><trkpt lat="44.0925871" lon="9.7806002"><ele>316.0</ele><time>2026-04-02T14:52:14.82Z</time></trkpt><trkpt lat="44.0931715" lon="9.7807752"><ele>312.0</ele><time>2026-04-02T14:52:25.815Z</time></trkpt><trkpt lat="44.0936235" lon="9.7802429"><ele>329.0</ele><time>2026-04-02T14:52:36.829Z</time></trkpt><trkpt lat="44.0935998" lon="9.7795367"><ele>340.0</ele><time>2026-04-02T14:52:46.812Z</time></trkpt><trkpt lat="44.0931007" lon="9.7792875"><ele>340.0</ele><time>2026-04-02T14:52:56.835Z</time></trkpt><trkpt lat="44.0930037" lon="9.7787292"><ele>340.0</ele><time>2026-04-02T14:53:06.826Z</time></trkpt><trkpt lat="44.0939228" lon="9.7775895"><ele>314.0</ele><time>2026-04-02T14:53:26.83Z</time></trkpt><trkpt lat="44.0944837" lon="9.7774801"><ele>303.0</ele><time>2026-04-02T14:53:36.819Z</time></trkpt><trkpt lat="44.0948783" lon="9.7779298"><ele>299.0</ele><time>2026-04-02T14:53:46.821Z</time></trkpt><trkpt lat="44.09521" lon="9.7774623"><ele>308.0</ele><time>2026-04-02T14:53:56.839Z</time></trkpt><trkpt lat="44.0953624" lon="9.7767695"><ele>308.0</ele><time>2026-04-02T14:54:06.823Z</time></trkpt><trkpt lat="44.0955522" lon="9.7761093"><ele>308.5</ele><time>2026-04-02T14:54:17.82Z</time></trkpt><trkpt lat="44.0956777" lon="9.775604"><ele>309.0</ele><time>2026-04-02T14:54:27.82Z</time></trkpt><trkpt lat="44.0958796" lon="9.775818"><ele>309.0</ele><time>2026-04-02T14:54:37.856Z</time></trkpt><trkpt lat="44.0963084" lon="9.7758815"><ele>309.0</ele><time>2026-04-02T14:54:47.823Z</time></trkpt><trkpt lat="44.0967159" lon="9.7762292"><ele>307.5</ele><time>2026-04-02T14:54:58.821Z</time></trkpt><trkpt lat="44.0970599" lon="9.7764039"><ele>306.0</ele><time>2026-04-02T14:55:09.809Z</time></trkpt><trkpt lat="44.0971293" lon="9.7768289"><ele>306.0</ele><time>2026-04-02T14:55:19.832Z</time></trkpt><trkpt lat="44.0971207" lon="9.7763607"><ele>306.0</ele><time>2026-04-02T14:55:30.816Z</time></trkpt><trkpt lat="44.0972312" lon="9.7760107"><ele>306.0</ele><time>2026-04-02T14:55:40.813Z</time></trkpt><trkpt lat="44.0973663" lon="9.7757534"><ele>306.0</ele><time>2026-04-02T14:55:50.819Z</time></trkpt><trkpt lat="44.097365" lon="9.7759948"><ele>306.0</ele><time>2026-04-02T14:56:00.813Z</time></trkpt><trkpt lat="44.0973957" lon="9.7763678"><ele>316.5</ele><time>2026-04-02T14:56:10.813Z</time></trkpt><trkpt lat="44.0976309" lon="9.7763863"><ele>327.0</ele><time>2026-04-02T14:56:20.834Z</time></trkpt><trkpt lat="44.0983987" lon="9.7756796"><ele>338.0</ele><time>2026-04-02T14:56:40.822Z</time></trkpt><trkpt lat="44.0984711" lon="9.7750838"><ele>349.0</ele><time>2026-04-02T14:56:50.822Z</time></trkpt><trkpt lat="44.0983025" lon="9.7744622"><ele>350.0</ele><time>2026-04-02T14:57:00.827Z</time></trkpt><trkpt lat="44.0980878" lon="9.7740149"><ele>351.0</ele><time>2026-04-02T14:57:10.904Z</time></trkpt><trkpt lat="44.0976901" lon="9.7736859"><ele>361.0</ele><time>2026-04-02T14:57:20.822Z</time></trkpt><trkpt lat="44.097336" lon="9.7733566"><ele>371.0</ele><time>2026-04-02T14:57:30.815Z</time></trkpt><trkpt lat="44.0969119" lon="9.7731992"><ele>366.0</ele><time>2026-04-02T14:57:40.918Z</time></trkpt><trkpt lat="44.0974251" lon="9.7729994"><ele>366.0</ele><time>2026-04-02T14:58:00.814Z</time></trkpt><trkpt lat="44.0978841" lon="9.7729337"><ele>371.5</ele><time>2026-04-02T14:58:10.817Z</time></trkpt><trkpt lat="44.098295" lon="9.7727425"><ele>377.0</ele><time>2026-04-02T14:58:20.816Z</time></trkpt><trkpt lat="44.0987395" lon="9.7728147"><ele>383.0</ele><time>2026-04-02T14:58:31.818Z</time></trkpt><trkpt lat="44.0990179" lon="9.7723684"><ele>389.0</ele><time>2026-04-02T14:58:41.823Z</time></trkpt><trkpt lat="44.0992751" lon="9.7718856"><ele>391.5</ele><time>2026-04-02T14:58:51.813Z</time></trkpt><trkpt lat="44.0992293" lon="9.7715968"><ele>394.0</ele><time>2026-04-02T14:59:01.805Z</time></trkpt><trkpt lat="44.0988259" lon="9.771869"><ele>394.0</ele><time>2026-04-02T14:59:11.903Z</time></trkpt><trkpt lat="44.0984316" lon="9.7719292"><ele>394.0</ele><time>2026-04-02T14:59:21.817Z</time></trkpt><trkpt lat="44.0980007" lon="9.7717855"><ele>405.5</ele><time>2026-04-02T14:59:31.8Z</time></trkpt><trkpt lat="44.0984378" lon="9.7717013"><ele>417.0</ele><time>2026-04-02T14:59:44.177Z</time></trkpt><trkpt lat="44.0987082" lon="9.7714033"><ele>417.0</ele><time>2026-04-02T14:59:51.809Z</time></trkpt><trkpt lat="44.0989484" lon="9.7713344"><ele>417.0</ele><time>2026-04-02T15:00:11.905Z</time></trkpt><trkpt lat="44.0997723" lon="9.7704168"><ele>420.0</ele><time>2026-04-02T15:00:21.797Z</time></trkpt><trkpt lat="44.1005359" lon="9.7703904"><ele>422.5</ele><time>2026-04-02T15:00:41.811Z</time></trkpt><trkpt lat="44.1007989" lon="9.7701961"><ele>425.0</ele><time>2026-04-02T15:00:51.798Z</time></trkpt><trkpt lat="44.100371" lon="9.7699846"><ele>433.5</ele><time>2026-04-02T15:01:01.796Z</time></trkpt><trkpt lat="44.1000147" lon="9.7698194"><ele>442.0</ele><time>2026-04-02T15:01:11.804Z</time></trkpt><trkpt lat="44.0990164" lon="9.7698323"><ele>440.5</ele><time>2026-04-02T15:01:31.838Z</time></trkpt><trkpt lat="44.0986748" lon="9.7699394"><ele>439.0</ele><time>2026-04-02T15:01:41.8Z</time></trkpt><trkpt lat="44.0986202" lon="9.7702075"><ele>450.0</ele><time>2026-04-02T15:01:43.58Z</time></trkpt><trkpt lat="44.0985729" lon="9.7700426"><ele>461.0</ele><time>2026-04-02T15:01:44.634Z</time></trkpt><trkpt lat="44.0981671" lon="9.7700162"><ele>470.0</ele><time>2026-04-02T15:01:53.799Z</time></trkpt><trkpt lat="44.0978141" lon="9.7699249"><ele>479.0</ele><time>2026-04-02T15:02:03.09Z</time></trkpt><trkpt lat="44.0974408" lon="9.7700835"><ele>473.5</ele><time>2026-04-02T15:02:12.788Z</time></trkpt><trkpt lat="44.0972754" lon="9.770296"><ele>468.0</ele><time>2026-04-02T15:02:14.578Z</time></trkpt><trkpt lat="44.0968582" lon="9.7705695"><ele>473.0</ele><time>2026-04-02T15:02:27.585Z</time></trkpt><trkpt lat="44.0963402" lon="9.7709717"><ele>473.0</ele><time>2026-04-02T15:02:36.793Z</time></trkpt><trkpt lat="44.0959871" lon="9.7708945"><ele>473.0</ele><time>2026-04-02T15:02:47.829Z</time></trkpt><trkpt lat="44.0956468" lon="9.7708135"><ele>470.0</ele><time>2026-04-02T15:02:57.482Z</time></trkpt><trkpt lat="44.0955549" lon="9.7702419"><ele>467.0</ele><time>2026-04-02T15:03:07.516Z</time></trkpt><trkpt lat="44.095228" lon="9.7698849"><ele>467.0</ele><time>2026-04-02T15:03:17.772Z</time></trkpt><trkpt lat="44.094985" lon="9.769487"><ele>467.0</ele><time>2026-04-02T15:03:27.474Z</time></trkpt><trkpt lat="44.0949526" lon="9.7689435"><ele>487.0</ele><time>2026-04-02T15:03:37.483Z</time></trkpt><trkpt lat="44.0951702" lon="9.7683747"><ele>499.0</ele><time>2026-04-02T15:03:47.516Z</time></trkpt><trkpt lat="44.0952511" lon="9.7676831"><ele>499.0</ele><time>2026-04-02T15:03:57.505Z</time></trkpt><trkpt lat="44.0952184" lon="9.7672457"><ele>499.0</ele><time>2026-04-02T15:04:07.481Z</time></trkpt><trkpt lat="44.0947616" lon="9.7667229"><ele>499.0</ele><time>2026-04-02T15:04:27.485Z</time></trkpt><trkpt lat="44.0949999" lon="9.7671341"><ele>499.0</ele><time>2026-04-02T15:04:37.51Z</time></trkpt><trkpt lat="44.0940633" lon="9.7673671"><ele>512.0</ele><time>2026-04-02T15:04:46.484Z</time></trkpt><trkpt lat="44.0936106" lon="9.7672479"><ele>512.0</ele><time>2026-04-02T15:04:59.484Z</time></trkpt><trkpt lat="44.0931163" lon="9.7668985"><ele>508.5</ele><time>2026-04-02T15:05:11.486Z</time></trkpt><trkpt lat="44.0928179" lon="9.7668248"><ele>505.0</ele><time>2026-04-02T15:05:22.516Z</time></trkpt><trkpt lat="44.0931549" lon="9.76671"><ele>512.0</ele><time>2026-04-02T15:05:40.64Z</time></trkpt><trkpt lat="44.0936156" lon="9.7668623"><ele>515.3333333333333</ele><time>2026-04-02T15:05:55.495Z</time></trkpt><trkpt lat="44.0936211" lon="9.7667322"><ele>518.6666666666666</ele><time>2026-04-02T15:06:06.672Z</time></trkpt><trkpt lat="44.0937402" lon="9.7665963"><ele>522.0</ele><time>2026-04-02T15:06:15.481Z</time></trkpt><trkpt lat="44.0947368" lon="9.7658379"><ele>542.0</ele><time>2026-04-02T15:06:25.5Z</time></trkpt><trkpt lat="44.0952135" lon="9.7656004"><ele>542.0</ele><time>2026-04-02T15:06:36.472Z</time></trkpt><trkpt lat="44.0955894" lon="9.7653401"><ele>542.0</ele><time>2026-04-02T15:06:47.521Z</time></trkpt><trkpt lat="44.0959859" lon="9.7654814"><ele>541.5</ele><time>2026-04-02T15:06:58.502Z</time></trkpt><trkpt lat="44.096084" lon="9.7659642"><ele>541.0</ele><time>2026-04-02T15:07:08.523Z</time></trkpt><trkpt lat="44.0961711" lon="9.7666776"><ele>537.0</ele><time>2026-04-02T15:07:19.484Z</time></trkpt><trkpt lat="44.0963884" lon="9.7671595"><ele>533.0</ele><time>2026-04-02T15:07:29.482Z</time></trkpt><trkpt lat="44.0964507" lon="9.7677431"><ele>533.0</ele><time>2026-04-02T15:07:39.486Z</time></trkpt><trkpt lat="44.0963948" lon="9.7683053"><ele>533.0</ele><time>2026-04-02T15:07:49.51Z</time></trkpt><trkpt lat="44.0967097" lon="9.7674719"><ele>541.0</ele><time>2026-04-02T15:08:09.504Z</time></trkpt><trkpt lat="44.0965498" lon="9.7667859"><ele>541.0</ele><time>2026-04-02T15:08:19.494Z</time></trkpt><trkpt lat="44.0965689" lon="9.7662712"><ele>541.0</ele><time>2026-04-02T15:08:29.481Z</time></trkpt><trkpt lat="44.0966445" lon="9.7656335"><ele>586.0</ele><time>2026-04-02T15:08:39.477Z</time></trkpt><trkpt lat="44.0967872" lon="9.7649671"><ele>573.0</ele><time>2026-04-02T15:08:49.591Z</time></trkpt><trkpt lat="44.0967097" lon="9.7674719"><ele>541.0</ele><time>2026-04-02T15:08:09.504Z</time></trkpt><trkpt lat="44.0965498" lon="9.7667859"><ele>541.0</ele><time>2026-04-02T15:08:19.494Z</time></trkpt><trkpt lat="44.0965689" lon="9.7662712"><ele>541.0</ele><time>2026-04-02T15:08:29.481Z</time></trkpt><trkpt lat="44.0966445" lon="9.7656335"><ele>586.0</ele><time>2026-04-02T15:08:39.477Z</time></trkpt><trkpt lat="44.0967872" lon="9.7649671"><ele>583.0</ele><time>2026-04-02T15:08:49.591Z</time></trkpt><trkpt lat="44.0966781" lon="9.765591"><ele>579.0</ele><time>2026-04-02T15:09:09.474Z</time></trkpt><trkpt lat="44.096803" lon="9.7662739"><ele>573.0</ele><time>2026-04-02T15:09:19.49Z</time></trkpt><trkpt lat="44.0968315" lon="9.766943"><ele>573.0</ele><time>2026-04-02T15:09:29.488Z</time></trkpt><trkpt lat="44.0969519" lon="9.7673556"><ele>573.0</ele><time>2026-04-02T15:09:39.486Z</time></trkpt><trkpt lat="44.0974157" lon="9.7674218"><ele>579.0</ele><time>2026-04-02T15:09:49.501Z</time></trkpt><trkpt lat="44.0976526" lon="9.766953"><ele>585.0</ele><time>2026-04-02T15:09:59.468Z</time></trkpt><trkpt lat="44.0980573" lon="9.7667695"><ele>577.5</ele><time>2026-04-02T15:10:09.487Z</time></trkpt><trkpt lat="44.0984425" lon="9.7669078"><ele>570.0</ele><time>2026-04-02T15:10:20.604Z</time></trkpt><trkpt lat="44.0985046" lon="9.7668499"><ele>588.0</ele><time>2026-04-02T15:10:21.596Z</time></trkpt><trkpt lat="44.0988724" lon="9.7665806"><ele>606.0</ele><time>2026-04-02T15:10:30.499Z</time></trkpt><trkpt lat="44.0990835" lon="9.7660299"><ele>614.0</ele><time>2026-04-02T15:10:39.47Z</time></trkpt><trkpt lat="44.0993355" lon="9.765711"><ele>622.0</ele><time>2026-04-02T15:10:48.51Z</time></trkpt><trkpt lat="44.0997017" lon="9.765711"><ele>613.5</ele><time>2026-04-02T15:10:58.488Z</time></trkpt><trkpt lat="44.1001377" lon="9.765687"><ele>605.0</ele><time>2026-04-02T15:11:08.499Z</time></trkpt><trkpt lat="44.1004059" lon="9.7651622"><ele>627.0</ele><time>2026-04-02T15:11:18.491Z</time></trkpt><trkpt lat="44.1008443" lon="9.7649578"><ele>627.0</ele><time>2026-04-02T15:11:28.568Z</time></trkpt><trkpt lat="44.1013116" lon="9.7647629"><ele>625.5</ele><time>2026-04-02T15:11:38.487Z</time></trkpt><trkpt lat="44.1016305" lon="9.7643653"><ele>624.0</ele><time>2026-04-02T15:11:47.476Z</time></trkpt><trkpt lat="44.1020327" lon="9.7642372"><ele>624.0</ele><time>2026-04-02T15:12:02.366Z</time></trkpt><trkpt lat="44.102117" lon="9.7639915"><ele>624.0</ele><time>2026-04-02T15:12:07.48Z</time></trkpt><trkpt lat="44.1018484" lon="9.7640826"><ele>624.0</ele><time>2026-04-02T15:12:16.473Z</time></trkpt><trkpt lat="44.1016556" lon="9.764243"><ele>624.0</ele><time>2026-04-02T15:12:25.515Z</time></trkpt><trkpt lat="44.1013815" lon="9.7642728"><ele>624.75</ele><time>2026-04-02T15:12:34.476Z</time></trkpt><trkpt lat="44.1014693" lon="9.7643772"><ele>625.5</ele><time>2026-04-02T15:12:52.479Z</time></trkpt><trkpt lat="44.1013342" lon="9.7643929"><ele>626.25</ele><time>2026-04-02T15:13:01.48Z</time></trkpt><trkpt lat="44.1011869" lon="9.7645021"><ele>627.0</ele><time>2026-04-02T15:13:10.475Z</time></trkpt><trkpt lat="44.1003311" lon="9.7650335"><ele>631.6666666666666</ele><time>2026-04-02T15:13:19.469Z</time></trkpt><trkpt lat="44.1002364" lon="9.7649369"><ele>636.3333333333333</ele><time>2026-04-02T15:13:28.473Z</time></trkpt><trkpt lat="44.0999331" lon="9.7650145"><ele>641.0</ele><time>2026-04-02T15:13:37.507Z</time></trkpt><trkpt lat="44.0999543" lon="9.7648654"><ele>641.0</ele><time>2026-04-02T15:13:46.53Z</time></trkpt><trkpt lat="44.1000979" lon="9.7648304"><ele>641.0</ele><time>2026-04-02T15:13:55.485Z</time></trkpt><trkpt lat="44.1003285" lon="9.7648165"><ele>641.0</ele><time>2026-04-02T15:14:04.49Z</time></trkpt><trkpt lat="44.100478" lon="9.764666"><ele>641.0</ele><time>2026-04-02T15:14:22.508Z</time></trkpt><trkpt lat="44.1005396" lon="9.7645315"><ele>641.0</ele><time>2026-04-02T15:14:49.506Z</time></trkpt><trkpt lat="44.1005982" lon="9.7643739"><ele>641.0</ele><time>2026-04-02T15:14:58.501Z</time></trkpt><trkpt lat="44.1005314" lon="9.7643316"><ele>641.0</ele><time>2026-04-02T15:15:07.516Z</time></trkpt><trkpt lat="44.1003728" lon="9.7646833"><ele>641.0</ele><time>2026-04-02T15:15:16.5Z</time></trkpt><trkpt lat="44.1003777" lon="9.7644363"><ele>641.0</ele><time>2026-04-02T15:15:25.482Z</time></trkpt><trkpt lat="44.1005031" lon="9.7645844"><ele>641.0</ele><time>2026-04-02T15:15:34.515Z</time></trkpt><trkpt lat="44.100234" lon="9.7646527"><ele>641.0</ele><time>2026-04-02T15:19:44.591Z</time></trkpt><trkpt lat="44.1005455" lon="9.7644253"><ele>641.0</ele><time>2026-04-02T15:20:08.834Z</time></trkpt><trkpt lat="44.1005957" lon="9.7642566"><ele>641.0</ele><time>2026-04-02T15:20:15.47Z</time></trkpt><trkpt lat="44.100538" lon="9.7645563"><ele>641.0</ele><time>2026-04-02T15:20:52.366Z</time></trkpt><trkpt lat="44.1002685" lon="9.7648268"><ele>641.0</ele><time>2026-04-02T15:21:01.403Z</time></trkpt><trkpt lat="44.1005509" lon="9.7649693"><ele>641.0</ele><time>2026-04-02T15:21:37.411Z</time></trkpt><trkpt lat="44.1007442" lon="9.7645834"><ele>644.0</ele><time>2026-04-02T15:21:55.365Z</time></trkpt><trkpt lat="44.1008013" lon="9.7645004"><ele>647.0</ele><time>2026-04-02T15:22:04.353Z</time></trkpt><trkpt lat="44.1014516" lon="9.7643178"><ele>635.5</ele><time>2026-04-02T15:22:13.36Z</time></trkpt><trkpt lat="44.1016549" lon="9.764282"><ele>624.0</ele><time>2026-04-02T15:22:22.35Z</time></trkpt><trkpt lat="44.1020114" lon="9.7641119"><ele>624.0</ele><time>2026-04-02T15:22:31.362Z</time></trkpt><trkpt lat="44.1023131" lon="9.7640805"><ele>624.0</ele><time>2026-04-02T15:22:40.36Z</time></trkpt><trkpt lat="44.1023317" lon="9.7637408"><ele>624.0</ele><time>2026-04-02T15:22:49.367Z</time></trkpt><trkpt lat="44.1022559" lon="9.7634148"><ele>624.0</ele><time>2026-04-02T15:22:58.364Z</time></trkpt><trkpt lat="44.1021043" lon="9.7635742"><ele>624.0</ele><time>2026-04-02T15:23:07.363Z</time></trkpt><trkpt lat="44.1019049" lon="9.7634448"><ele>624.0</ele><time>2026-04-02T15:23:25.417Z</time></trkpt><trkpt lat="44.1018641" lon="9.7635494"><ele>624.0</ele><time>2026-04-02T15:23:26.593Z</time></trkpt><trkpt lat="44.101818" lon="9.763474"><ele>624.0</ele><time>2026-04-02T15:23:29.587Z</time></trkpt><trkpt lat="44.1017449" lon="9.7634716"><ele>624.0</ele><time>2026-04-02T15:23:33.586Z</time></trkpt><trkpt lat="44.1016673" lon="9.763454"><ele>624.0</ele><time>2026-04-02T15:23:37.587Z</time></trkpt><trkpt lat="44.1015919" lon="9.7634405"><ele>624.0</ele><time>2026-04-02T15:23:40.595Z</time></trkpt><trkpt lat="44.1015054" lon="9.7634275"><ele>624.7142857142858</ele><time>2026-04-02T15:23:43.61Z</time></trkpt><trkpt lat="44.1014338" lon="9.7634177"><ele>625.4285714285713</ele><time>2026-04-02T15:23:45.613Z</time></trkpt><trkpt lat="44.1013687" lon="9.7634049"><ele>626.1428571428571</ele><time>2026-04-02T15:23:47.602Z</time></trkpt><trkpt lat="44.1013049" lon="9.7633979"><ele>626.8571428571429</ele><time>2026-04-02T15:23:51.585Z</time></trkpt><trkpt lat="44.1012397" lon="9.7633944"><ele>627.5714285714287</ele><time>2026-04-02T15:23:56.596Z</time></trkpt><trkpt lat="44.1011667" lon="9.763384"><ele>628.2857142857142</ele><time>2026-04-02T15:23:59.606Z</time></trkpt><trkpt lat="44.1010723" lon="9.7633454"><ele>629.0</ele><time>2026-04-02T15:24:03.596Z</time></trkpt><trkpt lat="44.1010021" lon="9.7633247"><ele>629.0</ele><time>2026-04-02T15:24:06.594Z</time></trkpt><trkpt lat="44.1009356" lon="9.7632946"><ele>629.0</ele><time>2026-04-02T15:24:09.59Z</time></trkpt><trkpt lat="44.1008579" lon="9.7632782"><ele>629.0</ele><time>2026-04-02T15:24:12.61Z</time></trkpt><trkpt lat="44.1007746" lon="9.7632554"><ele>629.0</ele><time>2026-04-02T15:24:15.722Z</time></trkpt><trkpt lat="44.1006833" lon="9.76324"><ele>629.0</ele><time>2026-04-02T15:24:18.592Z</time></trkpt><trkpt lat="44.1006081" lon="9.7632289"><ele>629.0</ele><time>2026-04-02T15:24:21.589Z</time></trkpt><trkpt lat="44.1005235" lon="9.7632099"><ele>631.0</ele><time>2026-04-02T15:24:24.579Z</time></trkpt><trkpt lat="44.1004444" lon="9.7632342"><ele>633.0</ele><time>2026-04-02T15:24:27.591Z</time></trkpt><trkpt lat="44.1003717" lon="9.7632455"><ele>635.0</ele><time>2026-04-02T15:24:30.59Z</time></trkpt><trkpt lat="44.1002844" lon="9.7632548"><ele>637.0</ele><time>2026-04-02T15:24:33.616Z</time></trkpt><trkpt lat="44.1002196" lon="9.7632813"><ele>639.0</ele><time>2026-04-02T15:24:36.588Z</time></trkpt><trkpt lat="44.1001423" lon="9.7632788"><ele>641.0</ele><time>2026-04-02T15:24:40.59Z</time></trkpt><trkpt lat="44.1000703" lon="9.7632577"><ele>641.0</ele><time>2026-04-02T15:24:43.615Z</time></trkpt><trkpt lat="44.0999937" lon="9.7632465"><ele>641.0</ele><time>2026-04-02T15:24:46.586Z</time></trkpt><trkpt lat="44.0999199" lon="9.7632315"><ele>641.0</ele><time>2026-04-02T15:24:49.588Z</time></trkpt><trkpt lat="44.0998392" lon="9.7632164"><ele>641.0</ele><time>2026-04-02T15:24:52.61Z</time></trkpt><trkpt lat="44.0997678" lon="9.7632003"><ele>641.0</ele><time>2026-04-02T15:24:55.596Z</time></trkpt><trkpt lat="44.0996872" lon="9.763183"><ele>641.0</ele><time>2026-04-02T15:24:58.587Z</time></trkpt><trkpt lat="44.0996208" lon="9.7631951"><ele>641.0</ele><time>2026-04-02T15:25:01.59Z</time></trkpt><trkpt lat="44.0996075" lon="9.7630125"><ele>641.0</ele><time>2026-04-02T15:25:30.363Z</time></trkpt><trkpt lat="44.1001133" lon="9.7631971"><ele>641.0</ele><time>2026-04-02T15:25:48.352Z</time></trkpt><trkpt lat="44.1004726" lon="9.7631488"><ele>641.0</ele><time>2026-04-02T15:26:15.351Z</time></trkpt><trkpt lat="44.1005129" lon="9.763225"><ele>641.0</ele><time>2026-04-02T15:26:33.356Z</time></trkpt><trkpt lat="44.100613" lon="9.7632585"><ele>635.0</ele><time>2026-04-02T15:26:42.361Z</time></trkpt><trkpt lat="44.1009028" lon="9.7632698"><ele>629.0</ele><time>2026-04-02T15:27:00.358Z</time></trkpt><trkpt lat="44.1018532" lon="9.7636526"><ele>626.5</ele><time>2026-04-02T15:27:09.362Z</time></trkpt><trkpt lat="44.1021719" lon="9.7636509"><ele>624.0</ele><time>2026-04-02T15:27:18.363Z</time></trkpt><trkpt lat="44.1023104" lon="9.7637097"><ele>624.0</ele><time>2026-04-02T15:27:27.403Z</time></trkpt><trkpt lat="44.1022383" lon="9.7641052"><ele>624.0</ele><time>2026-04-02T15:27:36.354Z</time></trkpt><trkpt lat="44.1019128" lon="9.7641579"><ele>625.5</ele><time>2026-04-02T15:27:45.401Z</time></trkpt><trkpt lat="44.1015433" lon="9.7644134"><ele>627.0</ele><time>2026-04-02T15:27:54.358Z</time></trkpt><trkpt lat="44.1011048" lon="9.7647536"><ele>605.0</ele><time>2026-04-02T15:28:03.345Z</time></trkpt><trkpt lat="44.1006914" lon="9.7652294"><ele>605.0</ele><time>2026-04-02T15:28:12.384Z</time></trkpt><trkpt lat="44.1002068" lon="9.7656107"><ele>622.0</ele><time>2026-04-02T15:28:21.351Z</time></trkpt><trkpt lat="44.0994506" lon="9.7657473"><ele>630.0</ele><time>2026-04-02T15:28:31.573Z</time></trkpt><trkpt lat="44.0990752" lon="9.7659393"><ele>638.0</ele><time>2026-04-02T15:28:41.359Z</time></trkpt><trkpt lat="44.0987856" lon="9.766645"><ele>610.0</ele><time>2026-04-02T15:28:50.382Z</time></trkpt><trkpt lat="44.0981561" lon="9.7665765"><ele>585.0</ele><time>2026-04-02T15:28:59.359Z</time></trkpt><trkpt lat="44.0976302" lon="9.7670206"><ele>573.0</ele><time>2026-04-02T15:29:08.351Z</time></trkpt><trkpt lat="44.0970965" lon="9.7675498"><ele>573.0</ele><time>2026-04-02T15:29:17.395Z</time></trkpt><trkpt lat="44.0969067" lon="9.7668676"><ele>579.0</ele><time>2026-04-02T15:29:26.391Z</time></trkpt><trkpt lat="44.0966635" lon="9.766051"><ele>583.0</ele><time>2026-04-02T15:29:35.388Z</time></trkpt><trkpt lat="44.0968121" lon="9.7652383"><ele>583.0</ele><time>2026-04-02T15:29:44.35Z</time></trkpt><trkpt lat="44.0967936" lon="9.7649486"><ele>583.0</ele><time>2026-04-02T15:29:45.575Z</time></trkpt><trkpt lat="44.0966673" lon="9.7648817"><ele>583.0</ele><time>2026-04-02T15:29:54.384Z</time></trkpt><trkpt lat="44.0966241" lon="9.7656135"><ele>583.0</ele><time>2026-04-02T15:30:03.349Z</time></trkpt><trkpt lat="44.0966478" lon="9.7657532"><ele>583.0</ele><time>2026-04-02T15:30:04.578Z</time></trkpt><trkpt lat="44.0966548" lon="9.7658846"><ele>583.0</ele><time>2026-04-02T15:30:05.581Z</time></trkpt><trkpt lat="44.0966093" lon="9.765955"><ele>583.0</ele><time>2026-04-02T15:30:06.575Z</time></trkpt><trkpt lat="44.0965793" lon="9.7660326"><ele>583.0</ele><time>2026-04-02T15:30:07.586Z</time></trkpt><trkpt lat="44.0965596" lon="9.7662195"><ele>582.1999999999999</ele><time>2026-04-02T15:30:09.589Z</time></trkpt><trkpt lat="44.0965583" lon="9.7663254"><ele>581.4</ele><time>2026-04-02T15:30:10.588Z</time></trkpt><trkpt lat="44.0965704" lon="9.7664219"><ele>580.5999999999999</ele><time>2026-04-02T15:30:11.584Z</time></trkpt><trkpt lat="44.0965845" lon="9.7665196"><ele>579.8</ele><time>2026-04-02T15:30:12.581Z</time></trkpt><trkpt lat="44.0966058" lon="9.7666065"><ele>579.0</ele><time>2026-04-02T15:30:13.591Z</time></trkpt><trkpt lat="44.0966365" lon="9.767505"><ele>533.0</ele><time>2026-04-02T15:30:22.378Z</time></trkpt><trkpt lat="44.0965053" lon="9.7683677"><ele>533.0</ele><time>2026-04-02T15:30:31.388Z</time></trkpt><trkpt lat="44.0964572" lon="9.7677711"><ele>533.0</ele><time>2026-04-02T15:30:40.389Z</time></trkpt><trkpt lat="44.0963238" lon="9.7668165"><ele>550.0</ele><time>2026-04-02T15:30:49.382Z</time></trkpt><trkpt lat="44.0960452" lon="9.7657178"><ele>550.0</ele><time>2026-04-02T15:30:58.381Z</time></trkpt><trkpt lat="44.0957918" lon="9.7652947"><ele>550.0</ele><time>2026-04-02T15:31:08.567Z</time></trkpt><trkpt lat="44.0956117" lon="9.765381"><ele>546.0</ele><time>2026-04-02T15:31:10.576Z</time></trkpt><trkpt lat="44.0955232" lon="9.7652836"><ele>542.0</ele><time>2026-04-02T15:31:12.582Z</time></trkpt><trkpt lat="44.0947954" lon="9.7657942"><ele>539.0</ele><time>2026-04-02T15:31:21.357Z</time></trkpt><trkpt lat="44.0942208" lon="9.766011"><ele>512.0</ele><time>2026-04-02T15:31:30.388Z</time></trkpt><trkpt lat="44.0938864" lon="9.7669309"><ele>505.0</ele><time>2026-04-02T15:31:39.405Z</time></trkpt><trkpt lat="44.0930505" lon="9.7667282"><ele>508.5</ele><time>2026-04-02T15:31:48.392Z</time></trkpt><trkpt lat="44.0931183" lon="9.7670444"><ele>512.0</ele><time>2026-04-02T15:31:57.353Z</time></trkpt><trkpt lat="44.0936966" lon="9.7670568"><ele>512.0</ele><time>2026-04-02T15:32:06.349Z</time></trkpt><trkpt lat="44.0940795" lon="9.7671869"><ele>512.0</ele><time>2026-04-02T15:32:15.391Z</time></trkpt><trkpt lat="44.0942351" lon="9.7669037"><ele>505.5</ele><time>2026-04-02T15:32:24.347Z</time></trkpt><trkpt lat="44.094465" lon="9.7668594"><ele>499.0</ele><time>2026-04-02T15:32:33.352Z</time></trkpt><trkpt lat="44.095251" lon="9.7676099"><ele>487.0</ele><time>2026-04-02T15:32:42.379Z</time></trkpt><trkpt lat="44.0951085" lon="9.7684762"><ele>467.0</ele><time>2026-04-02T15:32:51.385Z</time></trkpt><trkpt lat="44.0950011" lon="9.7693759"><ele>467.0</ele><time>2026-04-02T15:33:00.344Z</time></trkpt><trkpt lat="44.0954286" lon="9.7700627"><ele>446.0</ele><time>2026-04-02T15:33:09.342Z</time></trkpt><trkpt lat="44.0956816" lon="9.770917"><ele>473.0</ele><time>2026-04-02T15:33:18.354Z</time></trkpt><trkpt lat="44.0962073" lon="9.7709666"><ele>468.0</ele><time>2026-04-02T15:33:27.348Z</time></trkpt><trkpt lat="44.0967593" lon="9.7706466"><ele>479.0</ele><time>2026-04-02T15:33:36.375Z</time></trkpt><trkpt lat="44.0975621" lon="9.770159"><ele>439.0</ele><time>2026-04-02T15:33:45.352Z</time></trkpt><trkpt lat="44.0982811" lon="9.7702173"><ele>461.0</ele><time>2026-04-02T15:33:54.352Z</time></trkpt><trkpt lat="44.0989857" lon="9.7699706"><ele>447.0</ele><time>2026-04-02T15:34:03.356Z</time></trkpt><trkpt lat="44.0998674" lon="9.7698514"><ele>442.0</ele><time>2026-04-02T15:34:12.362Z</time></trkpt><trkpt lat="44.1006846" lon="9.7701645"><ele>447.0</ele><time>2026-04-02T15:34:21.343Z</time></trkpt><trkpt lat="44.0997705" lon="9.7701906"><ele>433.5</ele><time>2026-04-02T15:34:30.356Z</time></trkpt><trkpt lat="44.1000941" lon="9.7702095"><ele>420.0</ele><time>2026-04-02T15:34:39.349Z</time></trkpt><trkpt lat="44.1003521" lon="9.770303"><ele>420.0</ele><time>2026-04-02T15:34:48.345Z</time></trkpt><trkpt lat="44.0999403" lon="9.7703604"><ele>420.0</ele><time>2026-04-02T15:34:57.349Z</time></trkpt><trkpt lat="44.0996086" lon="9.7704151"><ele>417.0</ele><time>2026-04-02T15:35:06.359Z</time></trkpt><trkpt lat="44.0987073" lon="9.7714373"><ele>421.0</ele><time>2026-04-02T15:35:15.355Z</time></trkpt><trkpt lat="44.0979767" lon="9.771555"><ele>394.0</ele><time>2026-04-02T15:35:24.353Z</time></trkpt><trkpt lat="44.0983597" lon="9.7719618"><ele>417.0</ele><time>2026-04-02T15:35:33.356Z</time></trkpt><trkpt lat="44.0990548" lon="9.7718239"><ele>405.5</ele><time>2026-04-02T15:35:42.351Z</time></trkpt><trkpt lat="44.0993595" lon="9.771869"><ele>394.0</ele><time>2026-04-02T15:35:51.352Z</time></trkpt><trkpt lat="44.0989894" lon="9.7723066"><ele>394.0</ele><time>2026-04-02T15:36:00.347Z</time></trkpt><trkpt lat="44.0986466" lon="9.7723213"><ele>394.0</ele><time>2026-04-02T15:36:09.353Z</time></trkpt><trkpt lat="44.0978758" lon="9.7727919"><ele>371.0</ele><time>2026-04-02T15:36:18.382Z</time></trkpt><trkpt lat="44.0972203" lon="9.7730254"><ele>371.0</ele><time>2026-04-02T15:36:27.356Z</time></trkpt><trkpt lat="44.0968652" lon="9.773323"><ele>371.0</ele><time>2026-04-02T15:36:36.352Z</time></trkpt><trkpt lat="44.0973963" lon="9.7734687"><ele>351.0</ele><time>2026-04-02T15:36:45.351Z</time></trkpt><trkpt lat="44.098007" lon="9.7739645"><ele>349.0</ele><time>2026-04-02T15:36:54.35Z</time></trkpt><trkpt lat="44.0983239" lon="9.7746486"><ele>343.0</ele><time>2026-04-02T15:37:03.349Z</time></trkpt><trkpt lat="44.098551" lon="9.7753872"><ele>343.0</ele><time>2026-04-02T15:37:12.351Z</time></trkpt><trkpt lat="44.0985319" lon="9.7754814"><ele>343.0</ele><time>2026-04-02T15:37:16.04Z</time></trkpt><trkpt lat="44.0980746" lon="9.7760674"><ele>327.0</ele><time>2026-04-02T15:37:21.35Z</time></trkpt><trkpt lat="44.0976453" lon="9.7767645"><ele>327.0</ele><time>2026-04-02T15:37:30.355Z</time></trkpt><trkpt lat="44.0975892" lon="9.7760684"><ele>330.0</ele><time>2026-04-02T15:37:39.344Z</time></trkpt><trkpt lat="44.0975712" lon="9.7752854"><ele>306.0</ele><time>2026-04-02T15:37:48.347Z</time></trkpt><trkpt lat="44.0973691" lon="9.7760254"><ele>306.0</ele><time>2026-04-02T15:37:57.35Z</time></trkpt><trkpt lat="44.0973901" lon="9.7764509"><ele>306.0</ele><time>2026-04-02T15:38:06.351Z</time></trkpt><trkpt lat="44.0971899" lon="9.7767959"><ele>306.0</ele><time>2026-04-02T15:38:10.083Z</time></trkpt><trkpt lat="44.0973002" lon="9.7761986"><ele>306.0</ele><time>2026-04-02T15:38:15.348Z</time></trkpt><trkpt lat="44.0966982" lon="9.7761612"><ele>309.0</ele><time>2026-04-02T15:38:27.678Z</time></trkpt><trkpt lat="44.0961991" lon="9.775875"><ele>309.0</ele><time>2026-04-02T15:38:33.347Z</time></trkpt><trkpt lat="44.0958198" lon="9.7756625"><ele>309.0</ele><time>2026-04-02T15:38:42.397Z</time></trkpt><trkpt lat="44.0957553" lon="9.7756751"><ele>308.5</ele><time>2026-04-02T15:38:45.793Z</time></trkpt><trkpt lat="44.0955033" lon="9.7758537"><ele>308.0</ele><time>2026-04-02T15:38:51.392Z</time></trkpt><trkpt lat="44.0954186" lon="9.7763784"><ele>299.0</ele><time>2026-04-02T15:39:00.36Z</time></trkpt><trkpt lat="44.0952761" lon="9.7771372"><ele>291.0</ele><time>2026-04-02T15:39:09.363Z</time></trkpt><trkpt lat="44.0949564" lon="9.7777513"><ele>297.0</ele><time>2026-04-02T15:39:18.355Z</time></trkpt><trkpt lat="44.0949073" lon="9.7779204"><ele>303.0</ele><time>2026-04-02T15:39:22.126Z</time></trkpt><trkpt lat="44.094579" lon="9.7776376"><ele>308.5</ele><time>2026-04-02T15:39:27.393Z</time></trkpt><trkpt lat="44.0943856" lon="9.7774027"><ele>314.0</ele><time>2026-04-02T15:39:36.362Z</time></trkpt><trkpt lat="44.0941353" lon="9.7772963"><ele>319.5</ele><time>2026-04-02T15:39:45.353Z</time></trkpt><trkpt lat="44.0939208" lon="9.7777079"><ele>325.0</ele><time>2026-04-02T15:39:54.353Z</time></trkpt><trkpt lat="44.0935101" lon="9.7780412"><ele>325.0</ele><time>2026-04-02T15:40:03.353Z</time></trkpt><trkpt lat="44.0933811" lon="9.7782054"><ele>325.0</ele><time>2026-04-02T15:40:12.358Z</time></trkpt><trkpt lat="44.0931968" lon="9.7793969"><ele>327.0</ele><time>2026-04-02T15:40:39.347Z</time></trkpt><trkpt lat="44.0935487" lon="9.7796952"><ele>329.0</ele><time>2026-04-02T15:40:48.357Z</time></trkpt><trkpt lat="44.0935049" lon="9.7804298"><ele>316.0</ele><time>2026-04-02T15:40:57.354Z</time></trkpt><trkpt lat="44.0928901" lon="9.7807015"><ele>337.0</ele><time>2026-04-02T15:41:06.342Z</time></trkpt><trkpt lat="44.0923635" lon="9.7809011"><ele>303.0</ele><time>2026-04-02T15:41:15.354Z</time></trkpt><trkpt lat="44.0926659" lon="9.7818638"><ele>303.0</ele><time>2026-04-02T15:41:26.58Z</time></trkpt><trkpt lat="44.0926176" lon="9.7819848"><ele>303.0</ele><time>2026-04-02T15:41:28.577Z</time></trkpt><trkpt lat="44.0925747" lon="9.7820645"><ele>303.0</ele><time>2026-04-02T15:41:29.579Z</time></trkpt><trkpt lat="44.0925439" lon="9.7821433"><ele>303.0</ele><time>2026-04-02T15:41:30.582Z</time></trkpt><trkpt lat="44.0925213" lon="9.7822341"><ele>303.0</ele><time>2026-04-02T15:41:31.58Z</time></trkpt><trkpt lat="44.0924891" lon="9.782319"><ele>303.0</ele><time>2026-04-02T15:41:32.581Z</time></trkpt><trkpt lat="44.0924285" lon="9.7824742"><ele>305.75</ele><time>2026-04-02T15:41:34.596Z</time></trkpt><trkpt lat="44.0923566" lon="9.7826105"><ele>308.5</ele><time>2026-04-02T15:41:36.587Z</time></trkpt><trkpt lat="44.0922612" lon="9.7827239"><ele>311.25</ele><time>2026-04-02T15:41:38.586Z</time></trkpt><trkpt lat="44.0921512" lon="9.7827984"><ele>314.0</ele><time>2026-04-02T15:41:40.581Z</time></trkpt><trkpt lat="44.092028" lon="9.7828465"><ele>312.85714285714283</ele><time>2026-04-02T15:41:42.586Z</time></trkpt><trkpt lat="44.0919591" lon="9.7828618"><ele>311.7142857142857</ele><time>2026-04-02T15:41:43.586Z</time></trkpt><trkpt lat="44.0918903" lon="9.7828826"><ele>310.57142857142856</ele><time>2026-04-02T15:41:44.586Z</time></trkpt><trkpt lat="44.091823" lon="9.7829043"><ele>309.42857142857144</ele><time>2026-04-02T15:41:45.589Z</time></trkpt><trkpt lat="44.0917556" lon="9.782919"><ele>308.2857142857143</ele><time>2026-04-02T15:41:46.592Z</time></trkpt><trkpt lat="44.0916817" lon="9.7829393"><ele>307.1428571428571</ele><time>2026-04-02T15:41:47.644Z</time></trkpt><trkpt lat="44.0916155" lon="9.7829629"><ele>306.0</ele><time>2026-04-02T15:41:48.589Z</time></trkpt><trkpt lat="44.0915501" lon="9.7829857"><ele>306.0</ele><time>2026-04-02T15:41:49.615Z</time></trkpt><trkpt lat="44.0914878" lon="9.7830154"><ele>306.0</ele><time>2026-04-02T15:41:50.594Z</time></trkpt><trkpt lat="44.091422" lon="9.7830339"><ele>306.0</ele><time>2026-04-02T15:41:51.591Z</time></trkpt><trkpt lat="44.0913591" lon="9.7830508"><ele>306.0</ele><time>2026-04-02T15:41:52.585Z</time></trkpt><trkpt lat="44.0912613" lon="9.7830885"><ele>306.0</ele><time>2026-04-02T15:41:54.593Z</time></trkpt><trkpt lat="44.0911863" lon="9.7831083"><ele>306.0</ele><time>2026-04-02T15:41:56.599Z</time></trkpt><trkpt lat="44.0911137" lon="9.7831493"><ele>306.0</ele><time>2026-04-02T15:41:58.593Z</time></trkpt><trkpt lat="44.0910468" lon="9.7832685"><ele>306.0</ele><time>2026-04-02T15:42:00.592Z</time></trkpt><trkpt lat="44.0910105" lon="9.7833555"><ele>306.0</ele><time>2026-04-02T15:42:01.625Z</time></trkpt><trkpt lat="44.0909769" lon="9.7834409"><ele>306.0</ele><time>2026-04-02T15:42:02.596Z</time></trkpt><trkpt lat="44.0909197" lon="9.7835946"><ele>306.0</ele><time>2026-04-02T15:42:04.598Z</time></trkpt><trkpt lat="44.0908777" lon="9.78374"><ele>305.25</ele><time>2026-04-02T15:42:06.589Z</time></trkpt><trkpt lat="44.0908453" lon="9.7838931"><ele>304.5</ele><time>2026-04-02T15:42:08.589Z</time></trkpt><trkpt lat="44.0908304" lon="9.7840592"><ele>303.75</ele><time>2026-04-02T15:42:10.595Z</time></trkpt><trkpt lat="44.0908283" lon="9.7842231"><ele>303.0</ele><time>2026-04-02T15:42:12.609Z</time></trkpt><trkpt lat="44.0908455" lon="9.784393"><ele>302.2857142857143</ele><time>2026-04-02T15:42:14.589Z</time></trkpt><trkpt lat="44.0908593" lon="9.7844842"><ele>301.57142857142856</ele><time>2026-04-02T15:42:15.595Z</time></trkpt><trkpt lat="44.090875" lon="9.7845755"><ele>300.85714285714283</ele><time>2026-04-02T15:42:16.589Z</time></trkpt><trkpt lat="44.0908954" lon="9.7846676"><ele>300.1428571428571</ele><time>2026-04-02T15:42:17.584Z</time></trkpt><trkpt lat="44.0909231" lon="9.7847512"><ele>299.4285714285714</ele><time>2026-04-02T15:42:18.599Z</time></trkpt><trkpt lat="44.0909529" lon="9.7848303"><ele>298.7142857142857</ele><time>2026-04-02T15:42:19.59Z</time></trkpt><trkpt lat="44.0909861" lon="9.7849097"><ele>298.0</ele><time>2026-04-02T15:42:20.589Z</time></trkpt><trkpt lat="44.0910289" lon="9.7849871"><ele>298.0</ele><time>2026-04-02T15:42:21.634Z</time></trkpt><trkpt lat="44.091077" lon="9.7850599"><ele>298.0</ele><time>2026-04-02T15:42:22.594Z</time></trkpt><trkpt lat="44.0911276" lon="9.785121"><ele>298.0</ele><time>2026-04-02T15:42:23.648Z</time></trkpt><trkpt lat="44.0911779" lon="9.7851775"><ele>298.0</ele><time>2026-04-02T15:42:24.591Z</time></trkpt><trkpt lat="44.0912294" lon="9.7852326"><ele>298.0</ele><time>2026-04-02T15:42:25.596Z</time></trkpt><trkpt lat="44.0912847" lon="9.7852792"><ele>298.0</ele><time>2026-04-02T15:42:26.59Z</time></trkpt><trkpt lat="44.0913453" lon="9.7853221"><ele>298.0</ele><time>2026-04-02T15:42:27.599Z</time></trkpt><trkpt lat="44.0914048" lon="9.7853597"><ele>300.5</ele><time>2026-04-02T15:42:28.595Z</time></trkpt><trkpt lat="44.0914693" lon="9.7853823"><ele>303.0</ele><time>2026-04-02T15:42:29.605Z</time></trkpt><trkpt lat="44.0915437" lon="9.7853934"><ele>305.5</ele><time>2026-04-02T15:42:30.595Z</time></trkpt><trkpt lat="44.0916273" lon="9.7854126"><ele>308.0</ele><time>2026-04-02T15:42:31.628Z</time></trkpt><trkpt lat="44.0917083" lon="9.7854337"><ele>310.5</ele><time>2026-04-02T15:42:32.589Z</time></trkpt><trkpt lat="44.0917842" lon="9.7854479"><ele>313.0</ele><time>2026-04-02T15:42:33.592Z</time></trkpt><trkpt lat="44.0918643" lon="9.785457"><ele>314.3333333333333</ele><time>2026-04-02T15:42:34.595Z</time></trkpt><trkpt lat="44.0919394" lon="9.7854658"><ele>315.66666666666663</ele><time>2026-04-02T15:42:35.581Z</time></trkpt><trkpt lat="44.0920143" lon="9.7854692"><ele>317.0</ele><time>2026-04-02T15:42:36.6Z</time></trkpt><trkpt lat="44.0920838" lon="9.7854682"><ele>318.3333333333333</ele><time>2026-04-02T15:42:37.581Z</time></trkpt><trkpt lat="44.0921521" lon="9.7854643"><ele>319.6666666666667</ele><time>2026-04-02T15:42:38.587Z</time></trkpt><trkpt lat="44.0922197" lon="9.7854645"><ele>321.0</ele><time>2026-04-02T15:42:39.595Z</time></trkpt><trkpt lat="44.0923434" lon="9.7854607"><ele>321.0</ele><time>2026-04-02T15:42:41.602Z</time></trkpt><trkpt lat="44.0924064" lon="9.7854604"><ele>321.0</ele><time>2026-04-02T15:42:42.584Z</time></trkpt><trkpt lat="44.0925319" lon="9.7854603"><ele>321.0</ele><time>2026-04-02T15:42:44.581Z</time></trkpt><trkpt lat="44.0925991" lon="9.7854677"><ele>321.0</ele><time>2026-04-02T15:42:45.586Z</time></trkpt><trkpt lat="44.0927235" lon="9.7854955"><ele>321.0</ele><time>2026-04-02T15:42:47.582Z</time></trkpt><trkpt lat="44.0927941" lon="9.7855182"><ele>321.99999999999994</ele><time>2026-04-02T15:42:48.577Z</time></trkpt><trkpt lat="44.0928622" lon="9.7855424"><ele>323.0</ele><time>2026-04-02T15:42:49.602Z</time></trkpt><trkpt lat="44.0929342" lon="9.7855682"><ele>324.0</ele><time>2026-04-02T15:42:50.638Z</time></trkpt><trkpt lat="44.0930074" lon="9.7855972"><ele>325.0</ele><time>2026-04-02T15:42:51.581Z</time></trkpt><trkpt lat="44.0930793" lon="9.7856193"><ele>326.0</ele><time>2026-04-02T15:42:52.592Z</time></trkpt><trkpt lat="44.0931489" lon="9.7856446"><ele>326.99999999999994</ele><time>2026-04-02T15:42:53.582Z</time></trkpt><trkpt lat="44.0932165" lon="9.785669"><ele>328.0</ele><time>2026-04-02T15:42:54.582Z</time></trkpt><trkpt lat="44.0932805" lon="9.7857017"><ele>327.99999999999994</ele><time>2026-04-02T15:42:55.585Z</time></trkpt><trkpt lat="44.0933399" lon="9.7857362"><ele>328.0</ele><time>2026-04-02T15:42:56.585Z</time></trkpt><trkpt lat="44.093404" lon="9.7857768"><ele>328.0</ele><time>2026-04-02T15:42:57.593Z</time></trkpt><trkpt lat="44.0934687" lon="9.7858279"><ele>328.0</ele><time>2026-04-02T15:42:58.587Z</time></trkpt><trkpt lat="44.0935245" lon="9.7858839"><ele>328.0</ele><time>2026-04-02T15:42:59.594Z</time></trkpt><trkpt lat="44.0935796" lon="9.785955"><ele>327.99999999999994</ele><time>2026-04-02T15:43:00.59Z</time></trkpt><trkpt lat="44.0936321" lon="9.7860353"><ele>328.0</ele><time>2026-04-02T15:43:01.599Z</time></trkpt><trkpt lat="44.0936878" lon="9.7861212"><ele>328.0</ele><time>2026-04-02T15:43:02.595Z</time></trkpt><trkpt lat="44.0937436" lon="9.7862142"><ele>328.0</ele><time>2026-04-02T15:43:03.621Z</time></trkpt><trkpt lat="44.0938008" lon="9.7862979"><ele>328.0</ele><time>2026-04-02T15:43:04.589Z</time></trkpt><trkpt lat="44.0938642" lon="9.7863769"><ele>328.0</ele><time>2026-04-02T15:43:05.59Z</time></trkpt><trkpt lat="44.0939227" lon="9.7864562"><ele>328.0</ele><time>2026-04-02T15:43:06.599Z</time></trkpt><trkpt lat="44.0939803" lon="9.786536"><ele>328.0</ele><time>2026-04-02T15:43:07.596Z</time></trkpt><trkpt lat="44.0940358" lon="9.7866128"><ele>328.1428571428571</ele><time>2026-04-02T15:43:08.595Z</time></trkpt><trkpt lat="44.0940913" lon="9.7866846"><ele>328.2857142857143</ele><time>2026-04-02T15:43:09.594Z</time></trkpt><trkpt lat="44.0941557" lon="9.7867357"><ele>328.42857142857144</ele><time>2026-04-02T15:43:10.589Z</time></trkpt><trkpt lat="44.0942232" lon="9.7867931"><ele>328.57142857142856</ele><time>2026-04-02T15:43:11.582Z</time></trkpt><trkpt lat="44.0942914" lon="9.7868328"><ele>328.7142857142857</ele><time>2026-04-02T15:43:12.585Z</time></trkpt><trkpt lat="44.0943563" lon="9.7868722"><ele>328.85714285714283</ele><time>2026-04-02T15:43:13.584Z</time></trkpt><trkpt lat="44.0944253" lon="9.7869054"><ele>329.0</ele><time>2026-04-02T15:43:14.591Z</time></trkpt><trkpt lat="44.0944945" lon="9.7869313"><ele>329.0</ele><time>2026-04-02T15:43:15.584Z</time></trkpt><trkpt lat="44.0945609" lon="9.786949"><ele>329.0</ele><time>2026-04-02T15:43:16.606Z</time></trkpt><trkpt lat="44.0946295" lon="9.7869704"><ele>329.0</ele><time>2026-04-02T15:43:17.581Z</time></trkpt><trkpt lat="44.0946948" lon="9.786999"><ele>329.0</ele><time>2026-04-02T15:43:18.587Z</time></trkpt><trkpt lat="44.0947625" lon="9.7870218"><ele>329.0</ele><time>2026-04-02T15:43:19.585Z</time></trkpt><trkpt lat="44.0948332" lon="9.7870464"><ele>329.0</ele><time>2026-04-02T15:43:20.574Z</time></trkpt><trkpt lat="44.0949096" lon="9.7870715"><ele>329.0</ele><time>2026-04-02T15:43:21.583Z</time></trkpt><trkpt lat="44.0949829" lon="9.787097"><ele>321.0</ele><time>2026-04-02T15:43:22.58Z</time></trkpt><trkpt lat="44.0950692" lon="9.7871147"><ele>313.0</ele><time>2026-04-02T15:43:23.626Z</time></trkpt><trkpt lat="44.0958773" lon="9.7872913"><ele>325.0</ele><time>2026-04-02T15:43:32.374Z</time></trkpt><trkpt lat="44.0965572" lon="9.7879153"><ele>317.66666666666663</ele><time>2026-04-02T15:43:43.578Z</time></trkpt><trkpt lat="44.0966207" lon="9.7879694"><ele>310.3333333333333</ele><time>2026-04-02T15:43:44.58Z</time></trkpt><trkpt lat="44.0967116" lon="9.7880757"><ele>303.0</ele><time>2026-04-02T15:43:46.58Z</time></trkpt><trkpt lat="44.0967622" lon="9.788132"><ele>295.6666666666667</ele><time>2026-04-02T15:43:47.588Z</time></trkpt><trkpt lat="44.0968133" lon="9.7881896"><ele>288.33333333333337</ele><time>2026-04-02T15:43:48.583Z</time></trkpt><trkpt lat="44.0968653" lon="9.7882486"><ele>281.0</ele><time>2026-04-02T15:43:49.611Z</time></trkpt><trkpt lat="44.0969173" lon="9.7883154"><ele>281.0</ele><time>2026-04-02T15:43:50.583Z</time></trkpt><trkpt lat="44.0969606" lon="9.788388"><ele>281.0</ele><time>2026-04-02T15:43:51.584Z</time></trkpt><trkpt lat="44.0970402" lon="9.7885322"><ele>281.0</ele><time>2026-04-02T15:43:53.598Z</time></trkpt><trkpt lat="44.0970783" lon="9.7886188"><ele>281.0</ele><time>2026-04-02T15:43:54.585Z</time></trkpt><trkpt lat="44.0971131" lon="9.7887161"><ele>281.0</ele><time>2026-04-02T15:43:55.59Z</time></trkpt><trkpt lat="44.0971408" lon="9.7888086"><ele>281.0</ele><time>2026-04-02T15:43:56.578Z</time></trkpt><trkpt lat="44.0971751" lon="9.7889049"><ele>284.28571428571433</ele><time>2026-04-02T15:43:57.58Z</time></trkpt><trkpt lat="44.0972086" lon="9.7889992"><ele>287.57142857142856</ele><time>2026-04-02T15:43:58.588Z</time></trkpt><trkpt lat="44.0972359" lon="9.7890865"><ele>290.8571428571429</ele><time>2026-04-02T15:43:59.576Z</time></trkpt><trkpt lat="44.0972514" lon="9.7891751"><ele>294.14285714285717</ele><time>2026-04-02T15:44:00.595Z</time></trkpt><trkpt lat="44.0972535" lon="9.7892732"><ele>297.42857142857144</ele><time>2026-04-02T15:44:01.581Z</time></trkpt><trkpt lat="44.0972617" lon="9.7893698"><ele>300.7142857142857</ele><time>2026-04-02T15:44:02.583Z</time></trkpt><trkpt lat="44.0972752" lon="9.789466"><ele>304.0</ele><time>2026-04-02T15:44:03.586Z</time></trkpt><trkpt lat="44.0972795" lon="9.7895639"><ele>304.7142857142857</ele><time>2026-04-02T15:44:04.585Z</time></trkpt><trkpt lat="44.0972818" lon="9.7896617"><ele>305.42857142857144</ele><time>2026-04-02T15:44:05.63Z</time></trkpt><trkpt lat="44.097278" lon="9.7897601"><ele>306.14285714285717</ele><time>2026-04-02T15:44:06.577Z</time></trkpt><trkpt lat="44.0972731" lon="9.7898633"><ele>306.8571428571429</ele><time>2026-04-02T15:44:07.622Z</time></trkpt><trkpt lat="44.0972675" lon="9.7899709"><ele>307.57142857142856</ele><time>2026-04-02T15:44:08.631Z</time></trkpt><trkpt lat="44.0972611" lon="9.7900782"><ele>308.28571428571433</ele><time>2026-04-02T15:44:09.579Z</time></trkpt><trkpt lat="44.0972576" lon="9.7901839"><ele>309.0</ele><time>2026-04-02T15:44:10.587Z</time></trkpt><trkpt lat="44.0972547" lon="9.7902867"><ele>309.00000000000006</ele><time>2026-04-02T15:44:11.587Z</time></trkpt><trkpt lat="44.0972588" lon="9.7903974"><ele>309.0</ele><time>2026-04-02T15:44:12.594Z</time></trkpt><trkpt lat="44.0972629" lon="9.7905051"><ele>309.0</ele><time>2026-04-02T15:44:13.581Z</time></trkpt><trkpt lat="44.097265" lon="9.7906074"><ele>309.0</ele><time>2026-04-02T15:44:14.584Z</time></trkpt><trkpt lat="44.0972629" lon="9.790706"><ele>309.0</ele><time>2026-04-02T15:44:15.582Z</time></trkpt><trkpt lat="44.0972622" lon="9.7908045"><ele>309.00000000000006</ele><time>2026-04-02T15:44:16.587Z</time></trkpt><trkpt lat="44.0972581" lon="9.7908988"><ele>309.0</ele><time>2026-04-02T15:44:17.634Z</time></trkpt><trkpt lat="44.0972457" lon="9.7909877"><ele>307.5714285714286</ele><time>2026-04-02T15:44:18.582Z</time></trkpt><trkpt lat="44.0972347" lon="9.7910803"><ele>306.14285714285717</ele><time>2026-04-02T15:44:19.655Z</time></trkpt><trkpt lat="44.0972273" lon="9.7911739"><ele>304.7142857142857</ele><time>2026-04-02T15:44:20.59Z</time></trkpt><trkpt lat="44.0972245" lon="9.7912665"><ele>303.28571428571433</ele><time>2026-04-02T15:44:21.583Z</time></trkpt><trkpt lat="44.0972264" lon="9.7913638"><ele>301.8571428571429</ele><time>2026-04-02T15:44:22.585Z</time></trkpt><trkpt lat="44.0972215" lon="9.7914628"><ele>300.42857142857144</ele><time>2026-04-02T15:44:23.586Z</time></trkpt><trkpt lat="44.0972244" lon="9.7915541"><ele>299.0</ele><time>2026-04-02T15:44:24.59Z</time></trkpt><trkpt lat="44.0972244" lon="9.7916447"><ele>299.0</ele><time>2026-04-02T15:44:25.582Z</time></trkpt><trkpt lat="44.0972248" lon="9.7917374"><ele>299.0</ele><time>2026-04-02T15:44:26.582Z</time></trkpt><trkpt lat="44.0972314" lon="9.7918341"><ele>299.0</ele><time>2026-04-02T15:44:27.586Z</time></trkpt><trkpt lat="44.0972308" lon="9.7919348"><ele>299.0</ele><time>2026-04-02T15:44:28.585Z</time></trkpt><trkpt lat="44.0972303" lon="9.7920312"><ele>299.0</ele><time>2026-04-02T15:44:29.584Z</time></trkpt><trkpt lat="44.0972289" lon="9.7921324"><ele>299.0</ele><time>2026-04-02T15:44:30.599Z</time></trkpt><trkpt lat="44.0972247" lon="9.7922305"><ele>299.0</ele><time>2026-04-02T15:44:31.586Z</time></trkpt><trkpt lat="44.0972251" lon="9.7923289"><ele>298.57142857142856</ele><time>2026-04-02T15:44:32.585Z</time></trkpt><trkpt lat="44.0972218" lon="9.7924279"><ele>298.14285714285717</ele><time>2026-04-02T15:44:33.586Z</time></trkpt><trkpt lat="44.0972173" lon="9.7925275"><ele>297.7142857142857</ele><time>2026-04-02T15:44:34.591Z</time></trkpt><trkpt lat="44.097218" lon="9.7926282"><ele>297.2857142857143</ele><time>2026-04-02T15:44:35.587Z</time></trkpt><trkpt lat="44.0972215" lon="9.7927275"><ele>296.85714285714283</ele><time>2026-04-02T15:44:36.593Z</time></trkpt><trkpt lat="44.097221" lon="9.7928354"><ele>296.42857142857144</ele><time>2026-04-02T15:44:37.59Z</time></trkpt><trkpt lat="44.0972247" lon="9.7929354"><ele>296.0</ele><time>2026-04-02T15:44:38.585Z</time></trkpt><trkpt lat="44.0972247" lon="9.7931104"><ele>296.0</ele><time>2026-04-02T15:44:40.588Z</time></trkpt><trkpt lat="44.0972308" lon="9.7932853"><ele>296.0</ele><time>2026-04-02T15:44:42.595Z</time></trkpt><trkpt lat="44.0972482" lon="9.7934592"><ele>296.0</ele><time>2026-04-02T15:44:44.591Z</time></trkpt><trkpt lat="44.0972596" lon="9.7935638"><ele>296.0</ele><time>2026-04-02T15:44:45.608Z</time></trkpt><trkpt lat="44.0972702" lon="9.7936696"><ele>296.0</ele><time>2026-04-02T15:44:46.587Z</time></trkpt><trkpt lat="44.0972826" lon="9.7937811"><ele>296.1666666666667</ele><time>2026-04-02T15:44:47.591Z</time></trkpt><trkpt lat="44.0972989" lon="9.7938931"><ele>296.33333333333337</ele><time>2026-04-02T15:44:48.59Z</time></trkpt><trkpt lat="44.0973171" lon="9.7940079"><ele>296.5</ele><time>2026-04-02T15:44:49.586Z</time></trkpt><trkpt lat="44.0973312" lon="9.7941232"><ele>296.6666666666667</ele><time>2026-04-02T15:44:50.582Z</time></trkpt><trkpt lat="44.0973494" lon="9.7942358"><ele>296.8333333333333</ele><time>2026-04-02T15:44:51.591Z</time></trkpt><trkpt lat="44.0973683" lon="9.7943492"><ele>297.0</ele><time>2026-04-02T15:44:52.59Z</time></trkpt><trkpt lat="44.0973845" lon="9.7944584"><ele>297.0</ele><time>2026-04-02T15:44:53.6Z</time></trkpt><trkpt lat="44.097405" lon="9.7945662"><ele>297.0</ele><time>2026-04-02T15:44:54.588Z</time></trkpt><trkpt lat="44.0974236" lon="9.7946719"><ele>297.0</ele><time>2026-04-02T15:44:55.595Z</time></trkpt><trkpt lat="44.0974463" lon="9.7947882"><ele>297.0</ele><time>2026-04-02T15:44:56.589Z</time></trkpt><trkpt lat="44.0974689" lon="9.794903"><ele>297.0</ele><time>2026-04-02T15:44:57.592Z</time></trkpt><trkpt lat="44.0974904" lon="9.7950108"><ele>297.0</ele><time>2026-04-02T15:44:58.59Z</time></trkpt><trkpt lat="44.097524" lon="9.7951224"><ele>289.8333333333333</ele><time>2026-04-02T15:44:59.593Z</time></trkpt><trkpt lat="44.0975454" lon="9.7952313"><ele>282.6666666666667</ele><time>2026-04-02T15:45:00.591Z</time></trkpt><trkpt lat="44.0975644" lon="9.7953399"><ele>275.5</ele><time>2026-04-02T15:45:01.635Z</time></trkpt><trkpt lat="44.0975851" lon="9.7954501"><ele>268.33333333333337</ele><time>2026-04-02T15:45:02.593Z</time></trkpt><trkpt lat="44.0976054" lon="9.7955597"><ele>261.1666666666667</ele><time>2026-04-02T15:45:03.594Z</time></trkpt><trkpt lat="44.0976273" lon="9.7956629"><ele>254.0</ele><time>2026-04-02T15:45:04.594Z</time></trkpt><trkpt lat="44.0976479" lon="9.7957665"><ele>254.00000000000003</ele><time>2026-04-02T15:45:05.595Z</time></trkpt><trkpt lat="44.097669" lon="9.7958724"><ele>254.0</ele><time>2026-04-02T15:45:06.59Z</time></trkpt><trkpt lat="44.097694" lon="9.7959712"><ele>254.0</ele><time>2026-04-02T15:45:07.595Z</time></trkpt><trkpt lat="44.0977237" lon="9.7960742"><ele>254.0</ele><time>2026-04-02T15:45:08.585Z</time></trkpt><trkpt lat="44.0977511" lon="9.7961762"><ele>254.00000000000003</ele><time>2026-04-02T15:45:09.604Z</time></trkpt><trkpt lat="44.097776" lon="9.7962788"><ele>254.0</ele><time>2026-04-02T15:45:10.59Z</time></trkpt><trkpt lat="44.0978004" lon="9.7963819"><ele>255.00000000000003</ele><time>2026-04-02T15:45:11.591Z</time></trkpt><trkpt lat="44.0978285" lon="9.7964875"><ele>256.0</ele><time>2026-04-02T15:45:12.595Z</time></trkpt><trkpt lat="44.0978553" lon="9.7965829"><ele>257.0</ele><time>2026-04-02T15:45:13.593Z</time></trkpt><trkpt lat="44.097885" lon="9.7966844"><ele>258.0</ele><time>2026-04-02T15:45:14.592Z</time></trkpt><trkpt lat="44.0979139" lon="9.7967806"><ele>259.0</ele><time>2026-04-02T15:45:15.597Z</time></trkpt><trkpt lat="44.0979434" lon="9.7968722"><ele>260.0</ele><time>2026-04-02T15:45:16.601Z</time></trkpt><trkpt lat="44.0979747" lon="9.7969654"><ele>260.00000000000006</ele><time>2026-04-02T15:45:17.6Z</time></trkpt><trkpt lat="44.0980058" lon="9.7970662"><ele>260.0</ele><time>2026-04-02T15:45:18.608Z</time></trkpt><trkpt lat="44.0980323" lon="9.7971624"><ele>260.0</ele><time>2026-04-02T15:45:19.593Z</time></trkpt><trkpt lat="44.0980591" lon="9.7972535"><ele>260.0</ele><time>2026-04-02T15:45:20.605Z</time></trkpt><trkpt lat="44.0980866" lon="9.7973419"><ele>260.0</ele><time>2026-04-02T15:45:21.593Z</time></trkpt><trkpt lat="44.0981006" lon="9.7974355"><ele>260.00000000000006</ele><time>2026-04-02T15:45:22.593Z</time></trkpt><trkpt lat="44.098115" lon="9.7975277"><ele>260.0</ele><time>2026-04-02T15:45:23.593Z</time></trkpt><trkpt lat="44.0981267" lon="9.7976214"><ele>256.83333333333337</ele><time>2026-04-02T15:45:24.594Z</time></trkpt><trkpt lat="44.0981304" lon="9.7977168"><ele>253.66666666666669</ele><time>2026-04-02T15:45:25.635Z</time></trkpt><trkpt lat="44.0981271" lon="9.7978211"><ele>250.5</ele><time>2026-04-02T15:45:26.586Z</time></trkpt><trkpt lat="44.0981103" lon="9.7979284"><ele>247.33333333333331</ele><time>2026-04-02T15:45:27.593Z</time></trkpt><trkpt lat="44.0980822" lon="9.7980376"><ele>244.16666666666666</ele><time>2026-04-02T15:45:28.593Z</time></trkpt><trkpt lat="44.098049" lon="9.7981395"><ele>241.0</ele><time>2026-04-02T15:45:29.591Z</time></trkpt><trkpt lat="44.098014" lon="9.7982413"><ele>240.99999999999997</ele><time>2026-04-02T15:45:30.658Z</time></trkpt><trkpt lat="44.0979698" lon="9.7983393"><ele>241.0</ele><time>2026-04-02T15:45:31.598Z</time></trkpt><trkpt lat="44.0979248" lon="9.798434"><ele>241.0</ele><time>2026-04-02T15:45:32.591Z</time></trkpt><trkpt lat="44.0978773" lon="9.7985231"><ele>241.0</ele><time>2026-04-02T15:45:33.59Z</time></trkpt><trkpt lat="44.0978261" lon="9.7986029"><ele>240.99999999999997</ele><time>2026-04-02T15:45:34.593Z</time></trkpt><trkpt lat="44.0977664" lon="9.7986725"><ele>241.0</ele><time>2026-04-02T15:45:35.599Z</time></trkpt><trkpt lat="44.0977034" lon="9.7987232"><ele>236.20000000000002</ele><time>2026-04-02T15:45:36.593Z</time></trkpt><trkpt lat="44.0976243" lon="9.7987663"><ele>231.40000000000003</ele><time>2026-04-02T15:45:37.589Z</time></trkpt><trkpt lat="44.0975413" lon="9.7988028"><ele>226.6</ele><time>2026-04-02T15:45:38.605Z</time></trkpt><trkpt lat="44.0974566" lon="9.7988347"><ele>221.8</ele><time>2026-04-02T15:45:39.58Z</time></trkpt><trkpt lat="44.0973571" lon="9.7988512"><ele>217.0</ele><time>2026-04-02T15:45:40.589Z</time></trkpt><trkpt lat="44.09659" lon="9.7989577"><ele>214.0</ele><time>2026-04-02T15:45:49.341Z</time></trkpt><trkpt lat="44.0959788" lon="9.7993422"><ele>263.0</ele><time>2026-04-02T15:45:58.339Z</time></trkpt><trkpt lat="44.09558" lon="9.8002168"><ele>254.0</ele><time>2026-04-02T15:46:07.354Z</time></trkpt><trkpt lat="44.095656" lon="9.8011397"><ele>214.0</ele><time>2026-04-02T15:46:17.583Z</time></trkpt><trkpt lat="44.0958146" lon="9.8021491"><ele>210.0</ele><time>2026-04-02T15:46:26.346Z</time></trkpt><trkpt lat="44.0957021" lon="9.8029759"><ele>210.0</ele><time>2026-04-02T15:46:35.336Z</time></trkpt><trkpt lat="44.0957492" lon="9.8032447"><ele>210.0</ele><time>2026-04-02T15:46:36.583Z</time></trkpt><trkpt lat="44.095496" lon="9.8034013"><ele>210.0</ele><time>2026-04-02T15:46:40.593Z</time></trkpt><trkpt lat="44.0954403" lon="9.8034729"><ele>210.0</ele><time>2026-04-02T15:46:41.601Z</time></trkpt><trkpt lat="44.0953848" lon="9.8035528"><ele>210.0</ele><time>2026-04-02T15:46:42.584Z</time></trkpt><trkpt lat="44.0953163" lon="9.8036088"><ele>210.0</ele><time>2026-04-02T15:46:43.586Z</time></trkpt><trkpt lat="44.095244" lon="9.8036403"><ele>210.0</ele><time>2026-04-02T15:46:44.584Z</time></trkpt><trkpt lat="44.0946338" lon="9.8037297"><ele>184.0</ele><time>2026-04-02T15:46:53.346Z</time></trkpt><trkpt lat="44.0939369" lon="9.80362"><ele>184.0</ele><time>2026-04-02T15:47:02.382Z</time></trkpt><trkpt lat="44.0932953" lon="9.8035769"><ele>165.0</ele><time>2026-04-02T15:47:11.383Z</time></trkpt><trkpt lat="44.0923572" lon="9.8035292"><ele>194.0</ele><time>2026-04-02T15:47:20.438Z</time></trkpt><trkpt lat="44.0916105" lon="9.80345"><ele>196.0</ele><time>2026-04-02T15:47:29.342Z</time></trkpt><trkpt lat="44.0908857" lon="9.8026594"><ele>172.0</ele><time>2026-04-02T15:47:39.58Z</time></trkpt><trkpt lat="44.0900807" lon="9.8019128"><ele>177.0</ele><time>2026-04-02T15:47:49.576Z</time></trkpt><trkpt lat="44.0893614" lon="9.8020536"><ele>223.0</ele><time>2026-04-02T15:47:58.348Z</time></trkpt><trkpt lat="44.0889712" lon="9.8030979"><ele>223.0</ele><time>2026-04-02T15:48:08.585Z</time></trkpt><trkpt lat="44.0890692" lon="9.8033112"><ele>223.0</ele><time>2026-04-02T15:48:09.613Z</time></trkpt><trkpt lat="44.0891593" lon="9.8034444"><ele>223.0</ele><time>2026-04-02T15:48:10.588Z</time></trkpt><trkpt lat="44.089207" lon="9.8035619"><ele>223.0</ele><time>2026-04-02T15:48:11.579Z</time></trkpt><trkpt lat="44.0892869" lon="9.8036621"><ele>214.0</ele><time>2026-04-02T15:48:12.589Z</time></trkpt><trkpt lat="44.0893478" lon="9.8037366"><ele>205.0</ele><time>2026-04-02T15:48:13.577Z</time></trkpt><trkpt lat="44.0894154" lon="9.8038138"><ele>196.0</ele><time>2026-04-02T15:48:14.577Z</time></trkpt><trkpt lat="44.0899063" lon="9.8047722"><ele>195.60000000000002</ele><time>2026-04-02T15:48:24.619Z</time></trkpt><trkpt lat="44.0899502" lon="9.8049896"><ele>195.2</ele><time>2026-04-02T15:48:25.576Z</time></trkpt><trkpt lat="44.0899576" lon="9.805116"><ele>194.8</ele><time>2026-04-02T15:48:26.589Z</time></trkpt><trkpt lat="44.0899346" lon="9.8052192"><ele>194.39999999999998</ele><time>2026-04-02T15:48:27.581Z</time></trkpt><trkpt lat="44.0899094" lon="9.8053357"><ele>194.0</ele><time>2026-04-02T15:48:28.582Z</time></trkpt><trkpt lat="44.0899025" lon="9.8054503"><ele>194.00000000000003</ele><time>2026-04-02T15:48:29.577Z</time></trkpt><trkpt lat="44.0898925" lon="9.8055441"><ele>194.0</ele><time>2026-04-02T15:48:30.575Z</time></trkpt><trkpt lat="44.0898731" lon="9.8056473"><ele>194.0</ele><time>2026-04-02T15:48:31.588Z</time></trkpt><trkpt lat="44.0898625" lon="9.805762"><ele>194.0</ele><time>2026-04-02T15:48:32.579Z</time></trkpt><trkpt lat="44.0898435" lon="9.8058637"><ele>194.00000000000003</ele><time>2026-04-02T15:48:33.594Z</time></trkpt><trkpt lat="44.0898201" lon="9.8059728"><ele>194.0</ele><time>2026-04-02T15:48:34.585Z</time></trkpt><trkpt lat="44.0897909" lon="9.8060715"><ele>191.5</ele><time>2026-04-02T15:48:35.584Z</time></trkpt><trkpt lat="44.0897721" lon="9.8061672"><ele>189.0</ele><time>2026-04-02T15:48:36.581Z</time></trkpt><trkpt lat="44.0900072" lon="9.8073506"><ele>173.0</ele><time>2026-04-02T15:48:45.349Z</time></trkpt><trkpt lat="44.0904094" lon="9.8080484"><ele>152.0</ele><time>2026-04-02T15:48:54.393Z</time></trkpt><trkpt lat="44.0909039" lon="9.8088237"><ele>153.0</ele><time>2026-04-02T15:49:03.35Z</time></trkpt><trkpt lat="44.0913739" lon="9.8095935"><ele>141.0</ele><time>2026-04-02T15:49:12.336Z</time></trkpt><trkpt lat="44.0913459" lon="9.810549"><ele>115.0</ele><time>2026-04-02T15:49:21.384Z</time></trkpt><trkpt lat="44.0908039" lon="9.8111073"><ele>122.0</ele><time>2026-04-02T15:49:30.344Z</time></trkpt><trkpt lat="44.0900644" lon="9.8111767"><ele>130.0</ele><time>2026-04-02T15:49:39.347Z</time></trkpt><trkpt lat="44.0894421" lon="9.8117171"><ele>99.0</ele><time>2026-04-02T15:49:48.347Z</time></trkpt><trkpt lat="44.0887824" lon="9.8124123"><ele>108.0</ele><time>2026-04-02T15:49:57.344Z</time></trkpt><trkpt lat="44.0881023" lon="9.8123051"><ele>93.0</ele><time>2026-04-02T15:50:06.346Z</time></trkpt><trkpt lat="44.087305" lon="9.8125441"><ele>74.0</ele><time>2026-04-02T15:50:15.35Z</time></trkpt><trkpt lat="44.0865055" lon="9.8119248"><ele>105.0</ele><time>2026-04-02T15:50:24.342Z</time></trkpt><trkpt lat="44.0858071" lon="9.8114336"><ele>97.0</ele><time>2026-04-02T15:50:35.578Z</time></trkpt><trkpt lat="44.0857119" lon="9.811477"><ele>89.0</ele><time>2026-04-02T15:50:37.575Z</time></trkpt><trkpt lat="44.0856939" lon="9.8121103"><ele>74.0</ele><time>2026-04-02T15:50:46.342Z</time></trkpt><trkpt lat="44.086447" lon="9.8123337"><ele>60.0</ele><time>2026-04-02T15:50:55.372Z</time></trkpt><trkpt lat="44.0869774" lon="9.8128006"><ele>69.0</ele><time>2026-04-02T15:51:04.34Z</time></trkpt><trkpt lat="44.0879286" lon="9.8127152"><ele>69.0</ele><time>2026-04-02T15:51:15.575Z</time></trkpt><trkpt lat="44.0880714" lon="9.8126735"><ele>69.0</ele><time>2026-04-02T15:51:18.585Z</time></trkpt><trkpt lat="44.0881562" lon="9.8126748"><ele>69.0</ele><time>2026-04-02T15:51:19.582Z</time></trkpt><trkpt lat="44.0882341" lon="9.8126698"><ele>69.0</ele><time>2026-04-02T15:51:20.575Z</time></trkpt><trkpt lat="44.0890669" lon="9.8129249"><ele>65.0</ele><time>2026-04-02T15:51:30.571Z</time></trkpt><trkpt lat="44.0891647" lon="9.8129999"><ele>61.0</ele><time>2026-04-02T15:51:31.574Z</time></trkpt><trkpt lat="44.089943" lon="9.8127928"><ele>54.0</ele><time>2026-04-02T15:51:41.339Z</time></trkpt><trkpt lat="44.0906296" lon="9.8126604"><ele>39.0</ele><time>2026-04-02T15:51:50.343Z</time></trkpt><trkpt lat="44.091151" lon="9.813558"><ele>62.0</ele><time>2026-04-02T15:51:59.349Z</time></trkpt><trkpt lat="44.0916205" lon="9.81427"><ele>43.0</ele><time>2026-04-02T15:52:08.344Z</time></trkpt><trkpt lat="44.0922267" lon="9.8150758"><ele>11.0</ele><time>2026-04-02T15:52:17.342Z</time></trkpt><trkpt lat="44.0926584" lon="9.8160819"><ele>32.0</ele><time>2026-04-02T15:52:26.34Z</time></trkpt><trkpt lat="44.0932658" lon="9.8166159"><ele>35.0</ele><time>2026-04-02T15:52:35.346Z</time></trkpt><trkpt lat="44.0942176" lon="9.8156409"><ele>46.0</ele><time>2026-04-02T15:52:53.34Z</time></trkpt><trkpt lat="44.0946947" lon="9.8148053"><ele>22.0</ele><time>2026-04-02T15:53:02.354Z</time></trkpt><trkpt lat="44.0959586" lon="9.8140071"><ele>19.0</ele><time>2026-04-02T15:53:20.403Z</time></trkpt><trkpt lat="44.0972052" lon="9.8129998"><ele>12.0</ele><time>2026-04-02T15:53:38.402Z</time></trkpt><trkpt lat="44.097673" lon="9.8124409"><ele>14.0</ele><time>2026-04-02T15:53:47.354Z</time></trkpt><trkpt lat="44.0981302" lon="9.8116655"><ele>6.0</ele><time>2026-04-02T15:53:56.34Z</time></trkpt><trkpt lat="44.0986194" lon="9.8108302"><ele>6.0</ele><time>2026-04-02T15:54:05.349Z</time></trkpt><trkpt lat="44.0990081" lon="9.8102413"><ele>4.5</ele><time>2026-04-02T15:54:14.34Z</time></trkpt><trkpt lat="44.0991602" lon="9.8099309"><ele>3.0</ele><time>2026-04-02T15:54:23.35Z</time></trkpt><trkpt lat="44.099529" lon="9.8093011"><ele>11.0</ele><time>2026-04-02T15:54:32.344Z</time></trkpt><trkpt lat="44.1002798" lon="9.8080457"><ele>11.0</ele><time>2026-04-02T15:54:50.347Z</time></trkpt><trkpt lat="44.1006911" lon="9.8082499"><ele>11.0</ele><time>2026-04-02T15:54:59.345Z</time></trkpt><trkpt lat="44.1008274" lon="9.8081952"><ele>11.0</ele><time>2026-04-02T15:55:08.342Z</time></trkpt><trkpt lat="44.100649" lon="9.8081092"><ele>11.0</ele><time>2026-04-02T15:55:17.339Z</time></trkpt><trkpt lat="44.1017145" lon="9.8075629"><ele>7.0</ele><time>2026-04-02T15:55:26.347Z</time></trkpt><trkpt lat="44.1022522" lon="9.8076166"><ele>7.0</ele><time>2026-04-02T15:55:39.469Z</time></trkpt><trkpt lat="44.1031186" lon="9.8068706"><ele>12.0</ele><time>2026-04-02T15:55:53.337Z</time></trkpt><trkpt lat="44.1035003" lon="9.8063176"><ele>19.0</ele><time>2026-04-02T15:56:06.166Z</time></trkpt><trkpt lat="44.1039153" lon="9.8059765"><ele>14.0</ele><time>2026-04-02T15:56:11.388Z</time></trkpt><trkpt lat="44.1044058" lon="9.8055541"><ele>20.0</ele><time>2026-04-02T15:56:20.341Z</time></trkpt><trkpt lat="44.1047268" lon="9.8049252"><ele>20.0</ele><time>2026-04-02T15:56:29.344Z</time></trkpt><trkpt lat="44.1048119" lon="9.8045661"><ele>20.0</ele><time>2026-04-02T15:56:38.35Z</time></trkpt><trkpt lat="44.1046176" lon="9.8042131"><ele>20.0</ele><time>2026-04-02T15:56:47.388Z</time></trkpt><trkpt lat="44.1047529" lon="9.8038082"><ele>20.0</ele><time>2026-04-02T15:56:56.334Z</time></trkpt><trkpt lat="44.1050501" lon="9.8033025"><ele>19.333333333333336</ele><time>2026-04-02T15:57:05.336Z</time></trkpt><trkpt lat="44.1050162" lon="9.8036522"><ele>18.666666666666668</ele><time>2026-04-02T15:57:14.343Z</time></trkpt><trkpt lat="44.1050086" lon="9.8039076"><ele>18.0</ele><time>2026-04-02T15:57:24.343Z</time></trkpt><trkpt lat="44.1060596" lon="9.8043174"><ele>16.0</ele><time>2026-04-02T15:57:33.34Z</time></trkpt><trkpt lat="44.1065439" lon="9.8048702"><ele>15.0</ele><time>2026-04-02T15:57:42.35Z</time></trkpt><trkpt lat="44.1069524" lon="9.805508"><ele>16.0</ele><time>2026-04-02T15:57:51.358Z</time></trkpt><trkpt lat="44.1074391" lon="9.8059013"><ele>12.0</ele><time>2026-04-02T15:58:00.345Z</time></trkpt><trkpt lat="44.1078713" lon="9.8063739"><ele>12.0</ele><time>2026-04-02T15:58:09.343Z</time></trkpt><trkpt lat="44.1082145" lon="9.8066882"><ele>12.0</ele><time>2026-04-02T15:58:18.35Z</time></trkpt><trkpt lat="44.1078609" lon="9.8061749"><ele>16.0</ele><time>2026-04-02T15:58:27.349Z</time></trkpt><trkpt lat="44.1088394" lon="9.8058394"><ele>15.0</ele><time>2026-04-02T15:58:36.345Z</time></trkpt><trkpt lat="44.109162" lon="9.805262"><ele>15.0</ele><time>2026-04-02T15:58:45.343Z</time></trkpt><trkpt lat="44.1095662" lon="9.8046058"><ele>15.0</ele><time>2026-04-02T15:58:54.405Z</time></trkpt><trkpt lat="44.1098788" lon="9.8038459"><ele>14.5</ele><time>2026-04-02T15:59:03.439Z</time></trkpt><trkpt lat="44.1102012" lon="9.803425"><ele>14.0</ele><time>2026-04-02T15:59:12.342Z</time></trkpt><trkpt lat="44.110379" lon="9.803113"><ele>18.0</ele><time>2026-04-02T15:59:21.409Z</time></trkpt><trkpt lat="44.1108839" lon="9.8021518"><ele>18.0</ele><time>2026-04-02T15:59:39.351Z</time></trkpt><trkpt lat="44.1110958" lon="9.8019376"><ele>18.0</ele><time>2026-04-02T15:59:48.35Z</time></trkpt><trkpt lat="44.1114503" lon="9.8019668"><ele>19.0</ele><time>2026-04-02T15:59:57.348Z</time></trkpt><trkpt lat="44.1117577" lon="9.8019964"><ele>20.0</ele><time>2026-04-02T16:00:06.346Z</time></trkpt><trkpt lat="44.1118171" lon="9.8013907"><ele>20.0</ele><time>2026-04-02T16:00:15.343Z</time></trkpt><trkpt lat="44.1119245" lon="9.8009152"><ele>20.0</ele><time>2026-04-02T16:00:24.341Z</time></trkpt><trkpt lat="44.1118392" lon="9.8013926"><ele>29.0</ele><time>2026-04-02T16:00:33.349Z</time></trkpt><trkpt lat="44.1122584" lon="9.8000169"><ele>29.0</ele><time>2026-04-02T16:00:42.34Z</time></trkpt><trkpt lat="44.1123593" lon="9.7996512"><ele>29.0</ele><time>2026-04-02T16:00:51.332Z</time></trkpt><trkpt lat="44.1121405" lon="9.7992351"><ele>35.5</ele><time>2026-04-02T16:01:00.344Z</time></trkpt><trkpt lat="44.1121038" lon="9.7988181"><ele>42.0</ele><time>2026-04-02T16:01:09.334Z</time></trkpt><trkpt lat="44.1120537" lon="9.7985004"><ele>42.0</ele><time>2026-04-02T16:01:18.341Z</time></trkpt><trkpt lat="44.1121545" lon="9.7988943"><ele>42.0</ele><time>2026-04-02T16:01:27.343Z</time></trkpt><trkpt lat="44.1124554" lon="9.7991633"><ele>42.0</ele><time>2026-04-02T16:01:36.334Z</time></trkpt><trkpt lat="44.112345" lon="9.7991576"><ele>42.0</ele><time>2026-04-02T16:01:46.335Z</time></trkpt><trkpt lat="44.1133039" lon="9.7990388"><ele>40.5</ele><time>2026-04-02T16:01:56.335Z</time></trkpt><trkpt lat="44.1131255" lon="9.7992112"><ele>39.0</ele><time>2026-04-02T16:02:06.328Z</time></trkpt><trkpt lat="44.1131402" lon="9.7990407"><ele>37.5</ele><time>2026-04-02T16:02:08.569Z</time></trkpt><trkpt lat="44.1130775" lon="9.7990227"><ele>36.0</ele><time>2026-04-02T16:02:10.569Z</time></trkpt><trkpt lat="44.1130008" lon="9.7988741"><ele>50.0</ele><time>2026-04-02T16:02:19.343Z</time></trkpt><trkpt lat="44.1136652" lon="9.7987318"><ele>50.0</ele><time>2026-04-02T16:02:37.333Z</time></trkpt><trkpt lat="44.1138887" lon="9.7987022"><ele>50.0</ele><time>2026-04-02T16:02:49.268Z</time></trkpt><trkpt lat="44.113509" lon="9.7986006"><ele>43.0</ele><time>2026-04-02T16:02:55.34Z</time></trkpt><trkpt lat="44.1132073" lon="9.7985434"><ele>36.0</ele><time>2026-04-02T16:03:02.964Z</time></trkpt><trkpt lat="44.1130268" lon="9.7986"><ele>54.5</ele><time>2026-04-02T16:03:13.041Z</time></trkpt><trkpt lat="44.1133783" lon="9.7984737"><ele>73.0</ele><time>2026-04-02T16:03:31.04Z</time></trkpt><trkpt lat="44.1136796" lon="9.7984275"><ele>73.0</ele><time>2026-04-02T16:03:49.034Z</time></trkpt><trkpt lat="44.1135961" lon="9.7980856"><ele>73.0</ele><time>2026-04-02T16:03:59.037Z</time></trkpt><trkpt lat="44.1131852" lon="9.7981246"><ele>73.0</ele><time>2026-04-02T16:04:09.142Z</time></trkpt><trkpt lat="44.1134603" lon="9.7982162"><ele>73.0</ele><time>2026-04-02T16:04:29.035Z</time></trkpt><trkpt lat="44.1136022" lon="9.7980605"><ele>73.0</ele><time>2026-04-02T16:04:47.089Z</time></trkpt><trkpt lat="44.1133745" lon="9.7979718"><ele>73.0</ele><time>2026-04-02T16:04:57.034Z</time></trkpt><trkpt lat="44.1133076" lon="9.7979316"><ele>73.0</ele><time>2026-04-02T16:05:06.093Z</time></trkpt><trkpt lat="44.1135329" lon="9.7978689"><ele>73.0</ele><time>2026-04-02T16:05:15.035Z</time></trkpt><trkpt lat="44.1136029" lon="9.7980697"><ele>73.0</ele><time>2026-04-02T16:05:24.194Z</time></trkpt></trkseg></trk></gpx>